Home > Products > Valid Products > TAF

000
FTUS46 KPQR 290535
TAFTTD
TAF
KTTD 290535Z 2906/3006 26007KT P6SM -SHRA SCT035 OVC050
     FM291200 25006KT P6SM -SHRA BKN025 BKN045 OVC060
     FM291800 33004KT P6SM VCSH SCT030 BKN050
     FM292100 32004KT P6SM SCT050
     FM300300 08011KT P6SM SKC=



000
FTUS46 KPQR 290535
TAFONP
TAF
KONP 290535Z 2906/3006 31010KT P6SM -SHRA SCT025 BKN035 OVC045
     FM291100 28010KT P6SM -SHRA BKN028 OVC040
     FM291800 30011KT P6SM VCSH SCT035 BKN050
     FM292000 36011KT P6SM SCT050
     FM300300 06006KT P6SM SKC=



000
FTUS46 KPQR 290535
TAFPDX
TAF
KPDX 290535Z 2906/3006 30008KT P6SM -SHRA SCT035 BKN060 OVC080
     FM291300 30007KT P6SM -SHRA BKN028 BKN045 OVC060
     FM291700 33008KT P6SM VCSH SCT030 BKN050
     FM292100 34008KT P6SM SCT050
     FM300400 08006KT P6SM SKC=



000
FTUS46 KPQR 290535
TAFEUG
TAF
KEUG 290535Z 2906/3006 27010KT P6SM VCSH FEW015 BKN035 OVC050
     FM291300 25007KT P6SM -SHRA BKN025 BKN045 OVC060
     FM292000 32010KT P6SM VCSH SCT030 BKN050
     FM292200 35009KT P6SM SCT050=



000
FTUS46 KPQR 290535
TAFONP
TAF
KONP 290535Z 2906/3006 31010KT P6SM -SHRA SCT025 BKN035 OVC045
     FM291100 28010KT P6SM -SHRA BKN028 OVC040
     FM291800 30011KT P6SM VCSH SCT035 BKN050
     FM292000 36011KT P6SM SCT050
     FM300300 06006KT P6SM SKC=



000
FTUS46 KPQR 290535
TAFTTD
TAF
KTTD 290535Z 2906/3006 26007KT P6SM -SHRA SCT035 OVC050
     FM291200 25006KT P6SM -SHRA BKN025 BKN045 OVC060
     FM291800 33004KT P6SM VCSH SCT030 BKN050
     FM292100 32004KT P6SM SCT050
     FM300300 08011KT P6SM SKC=



000
FTUS46 KPQR 290535
TAFAST
TAF
KAST 290535Z 2906/3006 28011KT P6SM -SHRA SCT035 OVC060
     FM291100 24006KT P6SM -SHRA BKN030 OVC050
     FM291700 32009KT P6SM VCSH SCT035 BKN050
     FM292000 35008KT P6SM SCT050
     FM300200 08007KT P6SM FEW020=



000
FTUS46 KPQR 290535
TAFHIO
TAF
KHIO 290535Z 2906/3006 34005KT P6SM -SHRA BKN035 OVC050
     FM291300 23006KT P6SM -SHRA BKN025 BKN045 OVC060
     FM291800 31007KT P6SM VCSH SCT030 BKN050
     FM292100 32007KT P6SM SCT050
     FM300400 VRB03KT P6SM SKC=



000
FTUS46 KPQR 290535
TAFEUG
TAF
KEUG 290535Z 2906/3006 27010KT P6SM VCSH FEW015 BKN035 OVC050
     FM291300 25007KT P6SM -SHRA BKN025 BKN045 OVC060
     FM292000 32010KT P6SM VCSH SCT030 BKN050
     FM292200 35009KT P6SM SCT050=



000
FTUS46 KPQR 290535
TAFSLE
TAF
KSLE 290535Z 2906/3006 30009KT P6SM -SHRA SCT035 OVC045
     FM291400 24005KT P6SM -SHRA BKN025 BKN045 OVC060
     FM291800 24005KT P6SM VCSH SCT030 BKN050
     FM292200 34009KT P6SM SCT050=



000
FTUS46 KPQR 290535
TAFPDX
TAF
KPDX 290535Z 2906/3006 30008KT P6SM -SHRA SCT035 BKN060 OVC080
     FM291300 30007KT P6SM -SHRA BKN028 BKN045 OVC060
     FM291700 33008KT P6SM VCSH SCT030 BKN050
     FM292100 34008KT P6SM SCT050
     FM300400 08006KT P6SM SKC=



000
FTUS46 KPQR 290535
TAFAST
TAF
KAST 290535Z 2906/3006 28011KT P6SM -SHRA SCT035 OVC060
     FM291100 24006KT P6SM -SHRA BKN030 OVC050
     FM291700 32009KT P6SM VCSH SCT035 BKN050
     FM292000 35008KT P6SM SCT050
     FM300200 08007KT P6SM FEW020=



000
FTUS46 KPQR 290535
TAFSLE
TAF
KSLE 290535Z 2906/3006 30009KT P6SM -SHRA SCT035 OVC045
     FM291400 24005KT P6SM -SHRA BKN025 BKN045 OVC060
     FM291800 24005KT P6SM VCSH SCT030 BKN050
     FM292200 34009KT P6SM SCT050=



000
FTUS46 KPQR 290535
TAFHIO
TAF
KHIO 290535Z 2906/3006 34005KT P6SM -SHRA BKN035 OVC050
     FM291300 23006KT P6SM -SHRA BKN025 BKN045 OVC060
     FM291800 31007KT P6SM VCSH SCT030 BKN050
     FM292100 32007KT P6SM SCT050
     FM300400 VRB03KT P6SM SKC=



000
FTUS46 KPQR 290328 AAC
TAFSLE
TAF AMD
KSLE 290328Z 2903/2924 29010KT P6SM -SHRA SCT025 BKN045 OVC070
     FM290500 24007KT P6SM -SHRA SCT025 BKN045
     FM291400 24005KT P6SM -SHRA BKN022 BKN045
     FM291800 24005KT P6SM VCSH SCT030 BKN050
     FM292200 34009KT P6SM SCT050=



000
FTUS46 KPQR 290328 AAC
TAFSLE
TAF AMD
KSLE 290328Z 2903/2924 29010KT P6SM -SHRA SCT025 BKN045 OVC070
     FM290500 24007KT P6SM -SHRA SCT025 BKN045
     FM291400 24005KT P6SM -SHRA BKN022 BKN045
     FM291800 24005KT P6SM VCSH SCT030 BKN050
     FM292200 34009KT P6SM SCT050=



000
FTUS46 KPQR 290328 AAC
TAFSLE
TAF AMD
KSLE 290328Z 2903/2924 29010KT P6SM -SHRA SCT025 BKN045 OVC070
     FM290500 24007KT P6SM -SHRA SCT025 BKN045
     FM291400 24005KT P6SM -SHRA BKN022 BKN045
     FM291800 24005KT P6SM VCSH SCT030 BKN050
     FM292200 34009KT P6SM SCT050=



000
FTUS46 KPQR 290311 AAC
TAFPDX
TAF AMD
KPDX 290311Z 2903/2924 32010KT P6SM -SHRA SCT015 SCT020 BKN050
     FM291200 30007KT P6SM -SHRA BKN025 BKN045
     FM291800 33008KT P6SM VCSH SCT030 BKN050
     FM292100 34008KT P6SM SCT050=



000
FTUS46 KPQR 290311 AAC
TAFPDX
TAF AMD
KPDX 290311Z 2903/2924 32010KT P6SM -SHRA SCT015 SCT020 BKN050
     FM291200 30007KT P6SM -SHRA BKN025 BKN045
     FM291800 33008KT P6SM VCSH SCT030 BKN050
     FM292100 34008KT P6SM SCT050=



000
FTUS46 KPQR 290311 AAC
TAFPDX
TAF AMD
KPDX 290311Z 2903/2924 32010KT P6SM -SHRA SCT015 SCT020 BKN050
     FM291200 30007KT P6SM -SHRA BKN025 BKN045
     FM291800 33008KT P6SM VCSH SCT030 BKN050
     FM292100 34008KT P6SM SCT050=



000
FTUS46 KPQR 290311 AAC
TAFPDX
TAF AMD
KPDX 290311Z 2903/2924 32010KT P6SM -SHRA SCT015 SCT020 BKN050
     FM291200 30007KT P6SM -SHRA BKN025 BKN045
     FM291800 33008KT P6SM VCSH SCT030 BKN050
     FM292100 34008KT P6SM SCT050=



000
FTUS46 KPQR 290309 AAB
TAFTTD
TAF AMD
KTTD 290309Z 2903/2924 28010KT P6SM -SHRA SCT020 OVC035
     FM290500 28007KT P6SM -SHRA SCT025 OVC045
     FM291200 27006KT P6SM -SHRA BKN025 BKN045
     FM291800 33007KT P6SM VCSH SCT030 BKN050
     FM292100 32007KT P6SM SCT050=



000
FTUS46 KPQR 290309 AAB
TAFTTD
TAF AMD
KTTD 290309Z 2903/2924 28010KT P6SM -SHRA SCT020 OVC035
     FM290500 28007KT P6SM -SHRA SCT025 OVC045
     FM291200 27006KT P6SM -SHRA BKN025 BKN045
     FM291800 33007KT P6SM VCSH SCT030 BKN050
     FM292100 32007KT P6SM SCT050=



000
FTUS46 KPQR 290309 AAB
TAFTTD
TAF AMD
KTTD 290309Z 2903/2924 28010KT P6SM -SHRA SCT020 OVC035
     FM290500 28007KT P6SM -SHRA SCT025 OVC045
     FM291200 27006KT P6SM -SHRA BKN025 BKN045
     FM291800 33007KT P6SM VCSH SCT030 BKN050
     FM292100 32007KT P6SM SCT050=



000
FTUS46 KPQR 290309 AAB
TAFTTD
TAF AMD
KTTD 290309Z 2903/2924 28010KT P6SM -SHRA SCT020 OVC035
     FM290500 28007KT P6SM -SHRA SCT025 OVC045
     FM291200 27006KT P6SM -SHRA BKN025 BKN045
     FM291800 33007KT P6SM VCSH SCT030 BKN050
     FM292100 32007KT P6SM SCT050=



000
FTUS46 KPQR 290302 AAB
TAFHIO
TAF AMD
KHIO 290302Z 2903/2924 33012KT P6SM -SHRA SCT025 OVC060
      TEMPO 2903/2905 BKN025
     FM291300 23006KT P6SM -SHRA BKN020 BKN045
     FM291800 31007KT P6SM VCSH SCT030 BKN050
     FM292100 32007KT P6SM SCT050=



000
FTUS46 KPQR 290302 AAB
TAFHIO
TAF AMD
KHIO 290302Z 2903/2924 33012KT P6SM -SHRA SCT025 OVC060
      TEMPO 2903/2905 BKN025
     FM291300 23006KT P6SM -SHRA BKN020 BKN045
     FM291800 31007KT P6SM VCSH SCT030 BKN050
     FM292100 32007KT P6SM SCT050=



000
FTUS46 KPQR 290302 AAB
TAFHIO
TAF AMD
KHIO 290302Z 2903/2924 33012KT P6SM -SHRA SCT025 OVC060
      TEMPO 2903/2905 BKN025
     FM291300 23006KT P6SM -SHRA BKN020 BKN045
     FM291800 31007KT P6SM VCSH SCT030 BKN050
     FM292100 32007KT P6SM SCT050=



000
FTUS46 KPQR 290249 AAA
TAFONP
TAF AMD
KONP 290249Z 2903/2924 34012G22KT 3SM RA BR SCT008 OVC012
     FM290500 32012KT 5SM -SHRA SCT020 BKN035 OVC050
     FM291600 34011KT P6SM VCSH SCT035 BKN050
     FM292000 36011KT P6SM SCT050=



000
FTUS46 KPQR 290249 AAA
TAFONP
TAF AMD
KONP 290249Z 2903/2924 34012G22KT 3SM RA BR SCT008 OVC012
     FM290500 32012KT 5SM -SHRA SCT020 BKN035 OVC050
     FM291600 34011KT P6SM VCSH SCT035 BKN050
     FM292000 36011KT P6SM SCT050=



000
FTUS46 KPQR 290249 AAA
TAFONP
TAF AMD
KONP 290249Z 2903/2924 34012G22KT 3SM RA BR SCT008 OVC012
     FM290500 32012KT 5SM -SHRA SCT020 BKN035 OVC050
     FM291600 34011KT P6SM VCSH SCT035 BKN050
     FM292000 36011KT P6SM SCT050=



000
FTUS46 KPQR 290239 AAA
TAFAST
TAF AMD
KAST 290239Z 2903/2924 28011KT P6SM -SHRA SCT025 OVC045
     FM291500 32009KT P6SM VCSH SCT035 BKN050
     FM291900 35008KT P6SM SCT050=



000
FTUS46 KPQR 290239 AAA
TAFAST
TAF AMD
KAST 290239Z 2903/2924 28011KT P6SM -SHRA SCT025 OVC045
     FM291500 32009KT P6SM VCSH SCT035 BKN050
     FM291900 35008KT P6SM SCT050=



000
FTUS46 KPQR 290239 AAA
TAFAST
TAF AMD
KAST 290239Z 2903/2924 28011KT P6SM -SHRA SCT025 OVC045
     FM291500 32009KT P6SM VCSH SCT035 BKN050
     FM291900 35008KT P6SM SCT050=



000
FTUS46 KPQR 290239 AAA
TAFAST
TAF AMD
KAST 290239Z 2903/2924 28011KT P6SM -SHRA SCT025 OVC045
     FM291500 32009KT P6SM VCSH SCT035 BKN050
     FM291900 35008KT P6SM SCT050=



000
FTUS46 KPQR 290152 AAA
TAFHIO
TAF AMD
KHIO 290152Z 2902/2924 31012G24KT 4SM -RA BKN015 OVC045
     FM290400 20010KT P6SM -SHRA SCT020 OVC040
     FM291000 28006KT P6SM -SHRASN BKN020 BKN045
     FM291800 31007KT P6SM VCSH SCT030 BKN050
     FM292100 32007KT P6SM SCT050=



000
FTUS46 KPQR 290151 AAB
TAFSLE
TAF AMD
KSLE 290151Z 2902/2924 19012G24KT P6SM -RA BKN018 BKN035 OVC060
     FM290300 30011G22KT 5SM -RA BR BKN015 OVC030
     FM290500 28011KT P6SM -SHRA SCT020 OVC040
     FM291100 27007KT P6SM -SHRASN BKN020 BKN045
     FM291800 30008KT P6SM VCSH SCT030 BKN050
     FM292200 34009KT P6SM SCT050=



000
FTUS46 KPQR 290151 AAB
TAFSLE
TAF AMD
KSLE 290151Z 2902/2924 19012G24KT P6SM -RA BKN018 BKN035 OVC060
     FM290300 30011G22KT 5SM -RA BR BKN015 OVC030
     FM290500 28011KT P6SM -SHRA SCT020 OVC040
     FM291100 27007KT P6SM -SHRASN BKN020 BKN045
     FM291800 30008KT P6SM VCSH SCT030 BKN050
     FM292200 34009KT P6SM SCT050=



000
FTUS46 KPQR 290143 AAA
TAFTTD
TAF AMD
KTTD 290143Z 2902/2924 31011G22KT 3SM RA BKN012 BKN035 OVC060
     FM290300 30011KT 6SM -RA BKN025 OVC060
     FM290500 28010KT P6SM -SHRA SCT025 OVC045
     FM291000 30006KT P6SM -SHRASN BKN025 BKN045
     FM291800 33007KT P6SM VCSH SCT030 BKN050
     FM292100 32007KT P6SM SCT050=



000
FTUS46 KPQR 290143 AAA
TAFTTD
TAF AMD
KTTD 290143Z 2902/2924 31011G22KT 3SM RA BKN012 BKN035 OVC060
     FM290300 30011KT 6SM -RA BKN025 OVC060
     FM290500 28010KT P6SM -SHRA SCT025 OVC045
     FM291000 30006KT P6SM -SHRASN BKN025 BKN045
     FM291800 33007KT P6SM VCSH SCT030 BKN050
     FM292100 32007KT P6SM SCT050=



000
FTUS46 KPQR 290123 AAB
TAFPDX
TAF AMD
KPDX 290123Z 2901/2924 32020G30KT 4SM RA BR SCT015 BKN025 OVC070
     FM290300 30014KT P6SM -RA SCT025 BKN030 BKN050
     FM290400 30011KT P6SM -SHRA SCT025 OVC045
     FM291000 30007KT P6SM -SHRASN BKN025 BKN045
     FM291800 33008KT P6SM VCSH SCT030 BKN050
     FM292100 34008KT P6SM SCT050=



000
FTUS46 KPQR 290123 AAB
TAFPDX
TAF AMD
KPDX 290123Z 2901/2924 32020G30KT 4SM RA BR SCT015 BKN025 OVC070
     FM290300 30014KT P6SM -RA SCT025 BKN030 BKN050
     FM290400 30011KT P6SM -SHRA SCT025 OVC045
     FM291000 30007KT P6SM -SHRASN BKN025 BKN045
     FM291800 33008KT P6SM VCSH SCT030 BKN050
     FM292100 34008KT P6SM SCT050=



000
FTUS46 KPQR 282346 AAA
TAFSLE
TAF AMD
KSLE 282346Z 2900/2924 19019G32KT P6SM -RA BKN018 BKN035 OVC060
     FM290300 24011KT 5SM -RA BR BKN015 OVC030
     FM290600 28011KT P6SM -SHRA SCT020 OVC040
     FM291100 27007KT P6SM -SHRASN BKN020 BKN045
     FM291800 30008KT P6SM VCSH SCT030 BKN050
     FM292200 34009KT P6SM SCT050=



000
FTUS46 KPQR 282345 AAA
TAFPDX
TAF AMD
KPDX 282345Z 2900/2924 19015G29KT 5SM -RA BKN015 BKN022 OVC035
     FM290200 25013KT 4SM -RA BR BKN016 OVC035
     FM290400 30011KT P6SM -SHRA SCT025 OVC045
     FM291000 30007KT P6SM -SHRASN BKN025 BKN045
     FM291800 33008KT P6SM VCSH SCT030 BKN050
     FM292100 34008KT P6SM SCT050=



000
FTUS46 KPQR 282345 AAA
TAFPDX
TAF AMD
KPDX 282345Z 2900/2924 19015G29KT 5SM -RA BKN015 BKN022 OVC035
     FM290200 25013KT 4SM -RA BR BKN016 OVC035
     FM290400 30011KT P6SM -SHRA SCT025 OVC045
     FM291000 30007KT P6SM -SHRASN BKN025 BKN045
     FM291800 33008KT P6SM VCSH SCT030 BKN050
     FM292100 34008KT P6SM SCT050=



000
FTUS46 KPQR 282335
TAFTTD
TAF
KTTD 282335Z 2900/2924 20015G28KT P6SM -RA SCT018 OVC045
     FM290200 25013KT 4SM -RA BR BKN020 OVC035
     FM290400 30010KT P6SM -SHRA SCT025 OVC045
     FM291000 30006KT P6SM -SHRASN BKN025 BKN045
     FM291800 33007KT P6SM VCSH SCT030 BKN050
     FM292100 32007KT P6SM SCT050=



000
FTUS46 KPQR 282335
TAFEUG
TAF
KEUG 282335Z 2900/2924 19012KT P6SM SCT015 BKN025 BKN045
     FM290400 24010KT 4SM -RA BR BKN020 OVC040
     FM290700 27011KT P6SM -SHRA SCT020 OVC040
     FM291100 25007KT P6SM -SHRASN BKN020 BKN045
     FM291800 32010KT P6SM VCSH SCT030 BKN050
     FM292200 35009KT P6SM SCT050=



000
FTUS46 KPQR 282335
TAFHIO
TAF
KHIO 282335Z 2900/2924 18012G22KT 6SM -RA BKN015 OVC030
     FM290200 25011KT 4SM -RA BKN015 OVC035
     FM290400 28010KT P6SM -SHRA SCT020 OVC040
     FM291000 28006KT P6SM -SHRASN BKN020 BKN045
     FM291800 31007KT P6SM VCSH SCT030 BKN050
     FM292100 32007KT P6SM SCT050=



000
FTUS46 KPQR 282335
TAFPDX
TAF
KPDX 282335Z 2900/2924 19015G29KT 5SM -RA SCT015 BKN022 OVC035
     FM290200 25013KT 4SM -RA BR BKN020 OVC035
     FM290400 30011KT P6SM -SHRA SCT025 OVC045
     FM291000 30007KT P6SM -SHRASN BKN025 BKN045
     FM291800 33008KT P6SM VCSH SCT030 BKN050
     FM292100 34008KT P6SM SCT050=



000
FTUS46 KPQR 282335
TAFSLE
TAF
KSLE 282335Z 2900/2924 19019G32KT P6SM -RA SCT018 OVC040
     FM290300 24011KT 5SM -RA BR BKN022 OVC040
     FM290600 28011KT P6SM -SHRA SCT020 OVC040
     FM291100 27007KT P6SM -SHRASN BKN020 BKN045
     FM291800 30008KT P6SM VCSH SCT030 BKN050
     FM292200 34009KT P6SM SCT050=



000
FTUS46 KPQR 282335
TAFPDX
TAF
KPDX 282335Z 2900/2924 19015G29KT 5SM -RA SCT015 BKN022 OVC035
     FM290200 25013KT 4SM -RA BR BKN020 OVC035
     FM290400 30011KT P6SM -SHRA SCT025 OVC045
     FM291000 30007KT P6SM -SHRASN BKN025 BKN045
     FM291800 33008KT P6SM VCSH SCT030 BKN050
     FM292100 34008KT P6SM SCT050=



000
FTUS46 KPQR 282335
TAFHIO
TAF
KHIO 282335Z 2900/2924 18012G22KT 6SM -RA BKN015 OVC030
     FM290200 25011KT 4SM -RA BKN015 OVC035
     FM290400 28010KT P6SM -SHRA SCT020 OVC040
     FM291000 28006KT P6SM -SHRASN BKN020 BKN045
     FM291800 31007KT P6SM VCSH SCT030 BKN050
     FM292100 32007KT P6SM SCT050=



000
FTUS46 KPQR 282335
TAFAST
TAF
KAST 282335Z 2900/2924 33015G23KT P6SM -RA BKN015 OVC040
     FM290200 32013KT P6SM -SHRA BKN025 OVC050
     FM290700 30011KT P6SM -SHRA SCT025 BKN045
     FM291500 32009KT P6SM VCSH SCT035 BKN050
     FM291900 35008KT P6SM SCT050=



000
FTUS46 KPQR 282335
TAFSLE
TAF
KSLE 282335Z 2900/2924 19019G32KT P6SM -RA SCT018 OVC040
     FM290300 24011KT 5SM -RA BR BKN022 OVC040
     FM290600 28011KT P6SM -SHRA SCT020 OVC040
     FM291100 27007KT P6SM -SHRASN BKN020 BKN045
     FM291800 30008KT P6SM VCSH SCT030 BKN050
     FM292200 34009KT P6SM SCT050=



000
FTUS46 KPQR 282335
TAFTTD
TAF
KTTD 282335Z 2900/2924 20015G28KT P6SM -RA SCT018 OVC045
     FM290200 25013KT 4SM -RA BR BKN020 OVC035
     FM290400 30010KT P6SM -SHRA SCT025 OVC045
     FM291000 30006KT P6SM -SHRASN BKN025 BKN045
     FM291800 33007KT P6SM VCSH SCT030 BKN050
     FM292100 32007KT P6SM SCT050=



000
FTUS46 KPQR 282335
TAFEUG
TAF
KEUG 282335Z 2900/2924 19012KT P6SM SCT015 BKN025 BKN045
     FM290400 24010KT 4SM -RA BR BKN020 OVC040
     FM290700 27011KT P6SM -SHRA SCT020 OVC040
     FM291100 25007KT P6SM -SHRASN BKN020 BKN045
     FM291800 32010KT P6SM VCSH SCT030 BKN050
     FM292200 35009KT P6SM SCT050=



000
FTUS46 KPQR 282335
TAFONP
TAF
KONP 282335Z 2900/2924 22018G30KT 4SM -RA BR BKN006 BKN012 OVC025
     FM290400 30012G22KT P6SM -SHRA SCT015 BKN020 OVC040
     FM290900 30012KT P6SM -SHRA SCT025 BKN035 BKN045
     FM291600 34011KT P6SM VCSH SCT035 BKN050
     FM292000 36011KT P6SM SCT050=



000
FTUS46 KPQR 282335
TAFAST
TAF
KAST 282335Z 2900/2924 33015G23KT P6SM -RA BKN015 OVC040
     FM290200 32013KT P6SM -SHRA BKN025 OVC050
     FM290700 30011KT P6SM -SHRA SCT025 BKN045
     FM291500 32009KT P6SM VCSH SCT035 BKN050
     FM291900 35008KT P6SM SCT050=



000
FTUS46 KPQR 282335
TAFONP
TAF
KONP 282335Z 2900/2924 22018G30KT 4SM -RA BR BKN006 BKN012 OVC025
     FM290400 30012G22KT P6SM -SHRA SCT015 BKN020 OVC040
     FM290900 30012KT P6SM -SHRA SCT025 BKN035 BKN045
     FM291600 34011KT P6SM VCSH SCT035 BKN050
     FM292000 36011KT P6SM SCT050=



000
FTUS46 KPQR 282109 AAB
TAFPDX
TAF AMD
KPDX 282109Z 2821/2918 18014G30KT P6SM -RA SCT017 BKN040 OVC060
     FM282300 18013G29KT 5SM RA BKN020 OVC040
     FM290100 23013G24KT 5SM -RA BR BKN020 OVC035
     FM290400 30010KT P6SM -SHRA SCT025 OVC045
     FM291000 29007KT P6SM -SHRASN BKN025 BKN045=



000
FTUS46 KPQR 282109 AAB
TAFPDX
TAF AMD
KPDX 282109Z 2821/2918 18014G30KT P6SM -RA SCT017 BKN040 OVC060
     FM282300 18013G29KT 5SM RA BKN020 OVC040
     FM290100 23013G24KT 5SM -RA BR BKN020 OVC035
     FM290400 30010KT P6SM -SHRA SCT025 OVC045
     FM291000 29007KT P6SM -SHRASN BKN025 BKN045=



000
FTUS46 KPQR 282106 AAA
TAFTTD
TAF AMD
KTTD 282106Z 2821/2918 19011G24KT P6SM -RA SCT017 BKN035 OVC050
     FM282300 19011G23KT P6SM -RA BKN017 OVC035
     FM290200 24009KT 6SM -RA BKN020 OVC035
     FM290500 27007KT P6SM -SHRA SCT025 OVC045
     FM291000 26006KT P6SM -SHRASN BKN025 BKN045=



000
FTUS46 KPQR 282106 AAA
TAFTTD
TAF AMD
KTTD 282106Z 2821/2918 19011G24KT P6SM -RA SCT017 BKN035 OVC050
     FM282300 19011G23KT P6SM -RA BKN017 OVC035
     FM290200 24009KT 6SM -RA BKN020 OVC035
     FM290500 27007KT P6SM -SHRA SCT025 OVC045
     FM291000 26006KT P6SM -SHRASN BKN025 BKN045=



000
FTUS46 KPQR 282042 AAC
TAFAST
TAF AMD
KAST 282042Z 2821/2918 32014KT 6SM -RA BR BKN030 OVC045
     FM290100 30012KT P6SM -SHRA BKN025 OVC050
     FM290700 30010KT P6SM -SHRA SCT035 BKN045
     FM291500 32009KT P6SM VCSH SCT035 SCT050=



000
FTUS46 KPQR 282001 AAB
TAFAST
TAF AMD
KAST 282001Z 2820/2918 32014KT 3SM -RA BR BKN008 OVC025
     FM282200 27010KT 4SM -RA BR SCT008 BKN015 OVC030
     FM290000 30012KT P6SM -SHRA SCT015 BKN020 OVC045
     FM290800 30012KT P6SM -SHRA SCT025 BKN035 BKN045
     FM291500 32010KT P6SM VCSH SCT035 SCT050=



000
FTUS46 KPQR 282001 AAB
TAFAST
TAF AMD
KAST 282001Z 2820/2918 32014KT 3SM -RA BR BKN008 OVC025
     FM282200 27010KT 4SM -RA BR SCT008 BKN015 OVC030
     FM290000 30012KT P6SM -SHRA SCT015 BKN020 OVC045
     FM290800 30012KT P6SM -SHRA SCT025 BKN035 BKN045
     FM291500 32010KT P6SM VCSH SCT035 SCT050=



000
FTUS46 KPQR 281840 AAA
TAFPDX
TAF AMD
KPDX 281840Z 2819/2918 18013G28KT 4SM -RA BKN017 OVC035
      TEMPO 2819/2822 6SM -RA SCT015 BKN035 OVC050
     FM290000 22011KT 5SM -RA BR BKN020 OVC035
     FM290400 29010KT P6SM -SHRA SCT025 OVC045
     FM291000 26007KT P6SM -SHRASN BKN025 BKN045=



000
FTUS46 KPQR 281839 AAA
TAFHIO
TAF AMD
KHIO 281839Z 2819/2918 18012G22KT 4SM -RA BKN010 OVC030
     FM290000 25011KT 4SM -RA BKN015 OVC035
     FM290400 28010KT P6SM -SHRA SCT020 OVC040
     FM291000 28006KT P6SM -SHRASN BKN020 BKN045=



000
FTUS46 KPQR 281839 AAA
TAFHIO
TAF AMD
KHIO 281839Z 2819/2918 18012G22KT 4SM -RA BKN010 OVC030
     FM290000 25011KT 4SM -RA BKN015 OVC035
     FM290400 28010KT P6SM -SHRA SCT020 OVC040
     FM291000 28006KT P6SM -SHRASN BKN020 BKN045=



000
FTUS46 KPQR 281838 AAA
TAFSLE
TAF AMD
KSLE 281838Z 2819/2918 19015G30KT 4SM -RA SCT020 BKN040 OVC060
     FM282100 19016G29KT 3SM -RA BR BKN022 OVC040
     FM290300 24011KT 5SM -RA BR BKN022 OVC040
     FM290600 27011KT P6SM -SHRA SCT020 OVC040
     FM291000 25007KT P6SM -SHRASN BKN020 BKN045=



000
FTUS46 KPQR 281837 AAA
TAFAST
TAF AMD
KAST 281837Z 2819/2918 22011KT 3SM -RA BR BKN008 OVC025
     FM282200 27012G22KT 4SM -RA BR SCT008 BKN015 OVC030
     FM290000 30012G22KT P6SM -SHRA SCT015 BKN020 OVC045
     FM290800 30012KT P6SM -SHRA SCT025 BKN035 BKN045
     FM291500 32010KT P6SM VCSH SCT035 SCT050=



000
FTUS46 KPQR 281837 AAA
TAFAST
TAF AMD
KAST 281837Z 2819/2918 22011KT 3SM -RA BR BKN008 OVC025
     FM282200 27012G22KT 4SM -RA BR SCT008 BKN015 OVC030
     FM290000 30012G22KT P6SM -SHRA SCT015 BKN020 OVC045
     FM290800 30012KT P6SM -SHRA SCT025 BKN035 BKN045
     FM291500 32010KT P6SM VCSH SCT035 SCT050=



000
FTUS46 KPQR 281737
TAFTTD
TAF
KTTD 281737Z 2818/2918 19011KT P6SM -RA SCT017 BKN035 OVC050
     FM282100 19011KT P6SM -RA BKN017 OVC035
     FM290000 24009KT 6SM -RA BKN020 OVC035
     FM290400 27007KT P6SM -SHRA SCT025 OVC045
     FM291000 26006KT P6SM -SHRASN BKN025 BKN045=



000
FTUS46 KPQR 281737
TAFAST
TAF
KAST 281737Z 2818/2918 22011KT 5SM -RA BR BKN008 OVC025
     FM282000 27012G22KT 5SM -RA BR SCT008 BKN015 OVC030
     FM290000 30012G22KT P6SM -SHRA SCT015 BKN020 OVC045
     FM290800 30012KT P6SM -SHRA SCT025 BKN035 BKN045
     FM291500 32010KT P6SM VCSH SCT035 SCT050=



000
FTUS46 KPQR 281737
TAFHIO
TAF
KHIO 281737Z 2818/2918 18011KT 5SM -RA BKN009 OVC030
     FM290000 25010KT 4SM -RA BKN012 OVC035
     FM290400 28010KT P6SM -SHRA SCT020 OVC040
     FM291000 28006KT P6SM -SHRASN BKN020 BKN045=



000
FTUS46 KPQR 281737
TAFPDX
TAF
KPDX 281737Z 2818/2918 18013KT P6SM -RA BKN017 OVC035
      TEMPO 2818/2821 SCT017 BKN035 OVC050
     FM290000 25011KT 6SM -RA BKN020 OVC035
     FM290400 29010KT P6SM -SHRA SCT025 OVC045
     FM291000 26007KT P6SM -SHRASN BKN025 BKN045=



000
FTUS46 KPQR 281737
TAFEUG
TAF
KEUG 281737Z 2818/2918 19013KT P6SM -RA SCT020 BKN040 OVC060
     FM282200 20012KT 4SM -RA BR BKN020 OVC040
     FM290500 26010KT 4SM -RA BR BKN020 OVC040
     FM290800 27011KT P6SM -SHRA SCT020 OVC040
     FM291200 25007KT P6SM -SHRASN BKN020 BKN045=



000
FTUS46 KPQR 281737
TAFSLE
TAF
KSLE 281737Z 2818/2918 19013G23KT P6SM -RA SCT020 BKN040 OVC060
     FM282100 19012G22KT 4SM -RA BR BKN022 OVC040
     FM290300 24010KT 5SM -RA BR BKN022 OVC040
     FM290600 27011KT P6SM -SHRA SCT020 OVC040
     FM291000 25007KT P6SM -SHRASN BKN020 BKN045=



000
FTUS46 KPQR 281737
TAFONP
TAF
KONP 281737Z 2818/2918 21017G29KT 4SM -RA BR SCT008 BKN012 OVC025
     FM282200 24015G25KT 3SM RA BR SCT008 BKN012 OVC020
     FM290400 30012G22KT P6SM -SHRA SCT015 BKN020 OVC040
     FM290900 30012KT P6SM -SHRA SCT025 BKN035 BKN045=



000
FTUS46 KPQR 281737
TAFTTD
TAF
KTTD 281737Z 2818/2918 19011KT P6SM -RA SCT017 BKN035 OVC050
     FM282100 19011KT P6SM -RA BKN017 OVC035
     FM290000 24009KT 6SM -RA BKN020 OVC035
     FM290400 27007KT P6SM -SHRA SCT025 OVC045
     FM291000 26006KT P6SM -SHRASN BKN025 BKN045=



000
FTUS46 KPQR 281737
TAFHIO
TAF
KHIO 281737Z 2818/2918 18011KT 5SM -RA BKN009 OVC030
     FM290000 25010KT 4SM -RA BKN012 OVC035
     FM290400 28010KT P6SM -SHRA SCT020 OVC040
     FM291000 28006KT P6SM -SHRASN BKN020 BKN045=



000
FTUS46 KPQR 281737
TAFONP
TAF
KONP 281737Z 2818/2918 21017G29KT 4SM -RA BR SCT008 BKN012 OVC025
     FM282200 24015G25KT 3SM RA BR SCT008 BKN012 OVC020
     FM290400 30012G22KT P6SM -SHRA SCT015 BKN020 OVC040
     FM290900 30012KT P6SM -SHRA SCT025 BKN035 BKN045=



000
FTUS46 KPQR 281737
TAFEUG
TAF
KEUG 281737Z 2818/2918 19013KT P6SM -RA SCT020 BKN040 OVC060
     FM282200 20012KT 4SM -RA BR BKN020 OVC040
     FM290500 26010KT 4SM -RA BR BKN020 OVC040
     FM290800 27011KT P6SM -SHRA SCT020 OVC040
     FM291200 25007KT P6SM -SHRASN BKN020 BKN045=



000
FTUS46 KPQR 281737
TAFPDX
TAF
KPDX 281737Z 2818/2918 18013KT P6SM -RA BKN017 OVC035
      TEMPO 2818/2821 SCT017 BKN035 OVC050
     FM290000 25011KT 6SM -RA BKN020 OVC035
     FM290400 29010KT P6SM -SHRA SCT025 OVC045
     FM291000 26007KT P6SM -SHRASN BKN025 BKN045=



000
FTUS46 KPQR 281737
TAFAST
TAF
KAST 281737Z 2818/2918 22011KT 5SM -RA BR BKN008 OVC025
     FM282000 27012G22KT 5SM -RA BR SCT008 BKN015 OVC030
     FM290000 30012G22KT P6SM -SHRA SCT015 BKN020 OVC045
     FM290800 30012KT P6SM -SHRA SCT025 BKN035 BKN045
     FM291500 32010KT P6SM VCSH SCT035 SCT050=



000
FTUS46 KPQR 281737
TAFSLE
TAF
KSLE 281737Z 2818/2918 19013G23KT P6SM -RA SCT020 BKN040 OVC060
     FM282100 19012G22KT 4SM -RA BR BKN022 OVC040
     FM290300 24010KT 5SM -RA BR BKN022 OVC040
     FM290600 27011KT P6SM -SHRA SCT020 OVC040
     FM291000 25007KT P6SM -SHRASN BKN020 BKN045=



000
FTUS46 KPQR 281600 AAB
TAFAST
TAF AMD
KAST 281600Z 2816/2912 22013G18KT P6SM -RA BKN008 OVC035
     FM281800 26012G23KT 4SM RA BR BKN010 OVC018
     FM282000 30012G20KT 5SM -SHRA SCT008 BKN018 OVC030
     FM290200 30012KT P6SM -SHRA SCT012 BKN025 OVC035=



000
FTUS46 KPQR 281600 AAB
TAFAST
TAF AMD
KAST 281600Z 2816/2912 22013G18KT P6SM -RA BKN008 OVC035
     FM281800 26012G23KT 4SM RA BR BKN010 OVC018
     FM282000 30012G20KT 5SM -SHRA SCT008 BKN018 OVC030
     FM290200 30012KT P6SM -SHRA SCT012 BKN025 OVC035=



000
FTUS46 KPQR 281512 AAC
TAFPDX
TAF AMD
KPDX 281512Z 2815/2912 18012KT P6SM -RA BKN015 OVC035
     FM282000 19013G22KT 5SM -RA SCT015 BKN020 OVC035
     FM290200 29012KT 6SM -RA BKN025 OVC035
     FM290400 25008KT P6SM -SHRA SCT025 OVC045=



000
FTUS46 KPQR 281512 AAC
TAFPDX
TAF AMD
KPDX 281512Z 2815/2912 18012KT P6SM -RA BKN015 OVC035
     FM282000 19013G22KT 5SM -RA SCT015 BKN020 OVC035
     FM290200 29012KT 6SM -RA BKN025 OVC035
     FM290400 25008KT P6SM -SHRA SCT025 OVC045=



000
FTUS46 KPQR 281409 AAA
TAFAST
TAF AMD
KAST 281409Z 2814/2912 20013G18KT P6SM -SHRA BKN008 OVC035
     FM281700 22013G23KT 4SM RA BR BKN010 OVC018
     FM282200 30012G20KT 5SM -SHRA SCT008 BKN018 OVC030
     FM290200 30012KT P6SM -SHRA SCT012 BKN025 OVC035=



000
FTUS46 KPQR 281409 AAA
TAFAST
TAF AMD
KAST 281409Z 2814/2912 20013G18KT P6SM -SHRA BKN008 OVC035
     FM281700 22013G23KT 4SM RA BR BKN010 OVC018
     FM282200 30012G20KT 5SM -SHRA SCT008 BKN018 OVC030
     FM290200 30012KT P6SM -SHRA SCT012 BKN025 OVC035=



000
FTUS46 KPQR 281407 AAB
TAFTTD
TAF AMD
KTTD 281407Z 2814/2912 21007KT P6SM -SHRA SCT015 OVC035
      TEMPO 2814/2817 BKN015 OVC025
     FM282000 19012G18KT 6SM -RA SCT015 BKN022 OVC035
     FM290200 29012KT 6SM -RA BKN025 OVC035
     FM290400 25008KT P6SM -SHRA SCT025 OVC045=



000
FTUS46 KPQR 281407 AAB
TAFTTD
TAF AMD
KTTD 281407Z 2814/2912 21007KT P6SM -SHRA SCT015 OVC035
      TEMPO 2814/2817 BKN015 OVC025
     FM282000 19012G18KT 6SM -RA SCT015 BKN022 OVC035
     FM290200 29012KT 6SM -RA BKN025 OVC035
     FM290400 25008KT P6SM -SHRA SCT025 OVC045=



000
FTUS46 KPQR 281407 AAB
TAFPDX
TAF AMD
KPDX 281407Z 2814/2912 17009KT P6SM -SHRA SCT018 SCT029 OVC035
      TEMPO 2814/2816 4SM -SHRA BR BKN015
     FM282000 19013G22KT 6SM -RA SCT015 BKN022 OVC035
     FM290200 29012KT 6SM -RA BKN025 OVC035
     FM290400 25008KT P6SM -SHRA SCT025 OVC045=



000
FTUS46 KPQR 281406 AAA
TAFONP
TAF AMD
KONP 281406Z 2814/2912 20022G32KT 3SM -RA BR OVC007
     FM281700 22015G25KT 4SM -RA BR SCT008 BKN012 OVC025
     FM282000 22015G25KT 3SM RA BR SCT008 BKN012 OVC020
     FM290300 29011G20KT 5SM -SHRA SCT010 BKN015 OVC025=



000
FTUS46 KPQR 281406 AAA
TAFONP
TAF AMD
KONP 281406Z 2814/2912 20022G32KT 3SM -RA BR OVC007
     FM281700 22015G25KT 4SM -RA BR SCT008 BKN012 OVC025
     FM282000 22015G25KT 3SM RA BR SCT008 BKN012 OVC020
     FM290300 29011G20KT 5SM -SHRA SCT010 BKN015 OVC025=



000
FTUS46 KPQR 281359 AAA
TAFTTD
TAF AMD
KTTD 281359Z 2814/2912 20009G16KT P6SM -SHRA SCT015 OVC035
      TEMPO 2814/2817 BKN015 OVC025
     FM282000 19012G18KT 6SM -RA SCT015 BKN022 OVC035
     FM290200 29012KT 6SM -RA BKN025 OVC035
     FM290400 25008KT P6SM -SHRA SCT025 OVC045=



000
FTUS46 KPQR 281359 AAA
TAFTTD
TAF AMD
KTTD 281359Z 2814/2912 20009G16KT P6SM -SHRA SCT015 OVC035
      TEMPO 2814/2817 BKN015 OVC025
     FM282000 19012G18KT 6SM -RA SCT015 BKN022 OVC035
     FM290200 29012KT 6SM -RA BKN025 OVC035
     FM290400 25008KT P6SM -SHRA SCT025 OVC045=



000
FTUS46 KPQR 281353 AAA
TAFSLE
TAF AMD
KSLE 281353Z 2814/2912 17014KT P6SM -RA SCT015 OVC035
      TEMPO 2814/2817 SCT008 BKN015
     FM282200 18015G25KT 4SM RA BR SCT012 OVC025
     FM290500 26011KT P6SM -RA SCT015 OVC030
     FM290800 21007KT P6SM -SHRA SCT020 OVC030=



000
FTUS46 KPQR 281353 AAA
TAFSLE
TAF AMD
KSLE 281353Z 2814/2912 17014KT P6SM -RA SCT015 OVC035
      TEMPO 2814/2817 SCT008 BKN015
     FM282200 18015G25KT 4SM RA BR SCT012 OVC025
     FM290500 26011KT P6SM -RA SCT015 OVC030
     FM290800 21007KT P6SM -SHRA SCT020 OVC030=



000
FTUS46 KPQR 281352 AAA
TAFPDX
TAF AMD
KPDX 281352Z 2814/2912 18012G17KT P6SM -SHRA SCT018 SCT029 OVC035
      TEMPO 2814/2816 4SM -SHRA BR BKN015
     FM282000 19013G22KT 6SM -RA SCT015 BKN022 OVC035
     FM290200 29012KT 6SM -RA BKN025 OVC035
     FM290400 25008KT P6SM -SHRA SCT025 OVC045=



000
FTUS46 KPQR 281352 AAA
TAFPDX
TAF AMD
KPDX 281352Z 2814/2912 18012G17KT P6SM -SHRA SCT018 SCT029 OVC035
      TEMPO 2814/2816 4SM -SHRA BR BKN015
     FM282000 19013G22KT 6SM -RA SCT015 BKN022 OVC035
     FM290200 29012KT 6SM -RA BKN025 OVC035
     FM290400 25008KT P6SM -SHRA SCT025 OVC045=



000
FTUS46 KPQR 281327 AAA
TAFEUG
TAF AMD
KEUG 281327Z 2813/2912 16009KT P6SM -RA SCT025 OVC035
     FM282300 18012G18KT 4SM RA BR SCT012 OVC025
     FM290600 25011KT P6SM -RA SCT015 OVC030
     FM290900 21007KT P6SM -SHRA SCT020 OVC030=



000
FTUS46 KPQR 281326 AAA
TAFHIO
TAF AMD
KHIO 281326Z 2813/2912 17011KT P6SM -SHRA SCT015 OVC035
      TEMPO 2813/2816 3SM -SHRA BR BKN009
     FM281900 19013G20KT 6SM -RA SCT010 BKN018 OVC030
     FM290100 29012KT 6SM -RA BKN020 OVC030
     FM290300 25008KT P6SM -SHRA SCT020 OVC040=



000
FTUS46 KPQR 281326 AAA
TAFHIO
TAF AMD
KHIO 281326Z 2813/2912 17011KT P6SM -SHRA SCT015 OVC035
      TEMPO 2813/2816 3SM -SHRA BR BKN009
     FM281900 19013G20KT 6SM -RA SCT010 BKN018 OVC030
     FM290100 29012KT 6SM -RA BKN020 OVC030
     FM290300 25008KT P6SM -SHRA SCT020 OVC040=



000
FTUS46 KPQR 281128
TAFAST
TAF
KAST 281128Z 2812/2912 20013G18KT P6SM -SHRA SCT015 OVC035
     FM281500 22013G23KT 6SM RA SCT010 OVC020
     FM281700 22013G23KT 4SM RA BR BKN010 OVC018
     FM282200 30012G20KT 5SM -SHRA SCT008 BKN018 OVC030
     FM290200 30012KT P6SM -SHRA SCT012 BKN025 OVC035=



000
FTUS46 KPQR 281128
TAFSLE
TAF
KSLE 281128Z 2812/2912 17014KT P6SM -RA SCT020 OVC035
     FM282200 18015G25KT 4SM RA BR SCT012 OVC025
     FM290500 26011KT P6SM -RA SCT015 OVC030
     FM290800 21007KT P6SM -SHRA SCT020 OVC030=



000
FTUS46 KPQR 281128
TAFTTD
TAF
KTTD 281128Z 2812/2912 20009G16KT P6SM -SHRA SCT025 OVC035
      TEMPO 2812/2815 BKN025
     FM282000 19012G18KT 6SM -RA SCT015 BKN022 OVC035
     FM290200 29012KT 6SM -RA BKN025 OVC035
     FM290400 25008KT P6SM -SHRA SCT025 OVC045=



000
FTUS46 KPQR 281128
TAFHIO
TAF
KHIO 281128Z 2812/2912 17011KT P6SM -SHRA SCT015 OVC035
      TEMPO 2812/2814 BKN009
     FM281900 19013G20KT 6SM -RA SCT010 BKN018 OVC030
     FM290100 29012KT 6SM -RA BKN020 OVC030
     FM290300 25008KT P6SM -SHRA SCT020 OVC040=



000
FTUS46 KPQR 281128
TAFONP
TAF
KONP 281128Z 2812/2912 19018G25KT 2SM -RA BR OVC005
     FM281600 22015G25KT 4SM -RA BR SCT008 BKN012 OVC025
     FM282000 22015G25KT 3SM RA BR SCT008 BKN012 OVC020
     FM290300 29011G20KT 5SM -SHRA SCT010 BKN015 OVC025=



000
FTUS46 KPQR 281128
TAFPDX
TAF
KPDX 281128Z 2812/2912 18012G17KT P6SM -SHRA SCT018 SCT029 OVC035
     FM282000 19013G22KT 6SM -RA SCT015 BKN022 OVC035
     FM290200 29012KT 6SM -RA BKN025 OVC035
     FM290400 25008KT P6SM -SHRA SCT025 OVC045=



000
FTUS46 KPQR 281128
TAFEUG
TAF
KEUG 281128Z 2812/2912 19008KT P6SM -RA SCT025 OVC035
     FM282300 18012G18KT 4SM RA BR SCT012 OVC025
     FM290600 25011KT P6SM -RA SCT015 OVC030
     FM290900 21007KT P6SM -SHRA SCT020 OVC030=



000
FTUS46 KPQR 281128
TAFTTD
TAF
KTTD 281128Z 2812/2912 20009G16KT P6SM -SHRA SCT025 OVC035
      TEMPO 2812/2815 BKN025
     FM282000 19012G18KT 6SM -RA SCT015 BKN022 OVC035
     FM290200 29012KT 6SM -RA BKN025 OVC035
     FM290400 25008KT P6SM -SHRA SCT025 OVC045=



000
FTUS46 KPQR 281128
TAFEUG
TAF
KEUG 281128Z 2812/2912 19008KT P6SM -RA SCT025 OVC035
     FM282300 18012G18KT 4SM RA BR SCT012 OVC025
     FM290600 25011KT P6SM -RA SCT015 OVC030
     FM290900 21007KT P6SM -SHRA SCT020 OVC030=



000
FTUS46 KPQR 281128
TAFPDX
TAF
KPDX 281128Z 2812/2912 18012G17KT P6SM -SHRA SCT018 SCT029 OVC035
     FM282000 19013G22KT 6SM -RA SCT015 BKN022 OVC035
     FM290200 29012KT 6SM -RA BKN025 OVC035
     FM290400 25008KT P6SM -SHRA SCT025 OVC045=



000
FTUS46 KPQR 281128
TAFONP
TAF
KONP 281128Z 2812/2912 19018G25KT 2SM -RA BR OVC005
     FM281600 22015G25KT 4SM -RA BR SCT008 BKN012 OVC025
     FM282000 22015G25KT 3SM RA BR SCT008 BKN012 OVC020
     FM290300 29011G20KT 5SM -SHRA SCT010 BKN015 OVC025=



000
FTUS46 KPQR 281128
TAFSLE
TAF
KSLE 281128Z 2812/2912 17014KT P6SM -RA SCT020 OVC035
     FM282200 18015G25KT 4SM RA BR SCT012 OVC025
     FM290500 26011KT P6SM -RA SCT015 OVC030
     FM290800 21007KT P6SM -SHRA SCT020 OVC030=



000
FTUS46 KPQR 281128
TAFAST
TAF
KAST 281128Z 2812/2912 20013G18KT P6SM -SHRA SCT015 OVC035
     FM281500 22013G23KT 6SM RA SCT010 OVC020
     FM281700 22013G23KT 4SM RA BR BKN010 OVC018
     FM282200 30012G20KT 5SM -SHRA SCT008 BKN018 OVC030
     FM290200 30012KT P6SM -SHRA SCT012 BKN025 OVC035=



000
FTUS46 KPQR 281128
TAFHIO
TAF
KHIO 281128Z 2812/2912 17011KT P6SM -SHRA SCT015 OVC035
      TEMPO 2812/2814 BKN009
     FM281900 19013G20KT 6SM -RA SCT010 BKN018 OVC030
     FM290100 29012KT 6SM -RA BKN020 OVC030
     FM290300 25008KT P6SM -SHRA SCT020 OVC040=



000
FTUS46 KPQR 281019 AAD
TAFPDX
TAF AMD
KPDX 281019Z 2810/2906 18012KT P6SM -SHRA BKN018 BKN029 OVC040
     FM281400 16011KT 5SM RA BR SCT015 BKN018 OVC035
     FM282000 19013G22KT P6SM -RA SCT015 BKN025 OVC035
     FM290300 29009KT P6SM -SHRA SCT025 OVC045=



000
FTUS46 KPQR 281019 AAD
TAFPDX
TAF AMD
KPDX 281019Z 2810/2906 18012KT P6SM -SHRA BKN018 BKN029 OVC040
     FM281400 16011KT 5SM RA BR SCT015 BKN018 OVC035
     FM282000 19013G22KT P6SM -RA SCT015 BKN025 OVC035
     FM290300 29009KT P6SM -SHRA SCT025 OVC045=



000
FTUS46 KPQR 281019 AAD
TAFPDX
TAF AMD
KPDX 281019Z 2810/2906 18012KT P6SM -SHRA BKN018 BKN029 OVC040
     FM281400 16011KT 5SM RA BR SCT015 BKN018 OVC035
     FM282000 19013G22KT P6SM -RA SCT015 BKN025 OVC035
     FM290300 29009KT P6SM -SHRA SCT025 OVC045=



000
FTUS46 KPQR 281019 AAD
TAFPDX
TAF AMD
KPDX 281019Z 2810/2906 18012KT P6SM -SHRA BKN018 BKN029 OVC040
     FM281400 16011KT 5SM RA BR SCT015 BKN018 OVC035
     FM282000 19013G22KT P6SM -RA SCT015 BKN025 OVC035
     FM290300 29009KT P6SM -SHRA SCT025 OVC045=



000
FTUS46 KPQR 280909 AAC
TAFPDX
TAF AMD
KPDX 280909Z 2809/2906 18012KT P6SM -SHRA SCT018 BKN029 OVC040
     FM281400 16011KT 5SM RA BR SCT015 BKN018 OVC035
     FM282000 19013G22KT P6SM -RA SCT015 BKN025 OVC035
     FM290300 29009KT P6SM -SHRA SCT025 OVC045=



000
FTUS46 KPQR 280909 AAC
TAFPDX
TAF AMD
KPDX 280909Z 2809/2906 18012KT P6SM -SHRA SCT018 BKN029 OVC040
     FM281400 16011KT 5SM RA BR SCT015 BKN018 OVC035
     FM282000 19013G22KT P6SM -RA SCT015 BKN025 OVC035
     FM290300 29009KT P6SM -SHRA SCT025 OVC045=



000
FTUS46 KPQR 280700 AAB
TAFPDX
TAF AMD
KPDX 280700Z 2807/2906 18012KT P6SM -SHRA BKN018 BKN029 OVC050
     FM281400 16011KT 5SM RA BR SCT015 BKN018 OVC035
     FM282000 19013G22KT P6SM -RA SCT015 BKN025 OVC035
     FM290300 29009KT P6SM -SHRA SCT025 OVC045=



000
FTUS46 KPQR 280700 AAB
TAFPDX
TAF AMD
KPDX 280700Z 2807/2906 18012KT P6SM -SHRA BKN018 BKN029 OVC050
     FM281400 16011KT 5SM RA BR SCT015 BKN018 OVC035
     FM282000 19013G22KT P6SM -RA SCT015 BKN025 OVC035
     FM290300 29009KT P6SM -SHRA SCT025 OVC045=



000
FTUS46 KPQR 280634 AAA
TAFSLE
TAF AMD
KSLE 280634Z 2807/2906 17011G19KT P6SM -SHRA SCT020 OVC035
     FM281300 18012G20KT 5SM RA BR SCT012 OVC025
     FM281900 18014G24KT 6SM -RA BR SCT012 OVC035
     FM290300 21011KT P6SM -RA OVC018=



000
FTUS46 KPQR 280634 AAA
TAFSLE
TAF AMD
KSLE 280634Z 2807/2906 17011G19KT P6SM -SHRA SCT020 OVC035
     FM281300 18012G20KT 5SM RA BR SCT012 OVC025
     FM281900 18014G24KT 6SM -RA BR SCT012 OVC035
     FM290300 21011KT P6SM -RA OVC018=



000
FTUS46 KPQR 280634 AAA
TAFTTD
TAF AMD
KTTD 280634Z 2807/2906 20009G16KT P6SM -SHRA SCT025 OVC045
      TEMPO 2807/2809 BKN025
     FM280900 19010KT 6SM -RA BR BKN025 OVC035
     FM281500 20008KT 5SM RA BR BKN015 OVC025
     FM282100 19012G20KT P6SM -RA SCT015 OVC035=



000
FTUS46 KPQR 280634 AAA
TAFTTD
TAF AMD
KTTD 280634Z 2807/2906 20009G16KT P6SM -SHRA SCT025 OVC045
      TEMPO 2807/2809 BKN025
     FM280900 19010KT 6SM -RA BR BKN025 OVC035
     FM281500 20008KT 5SM RA BR BKN015 OVC025
     FM282100 19012G20KT P6SM -RA SCT015 OVC035=



000
FTUS46 KPQR 280621 AAA
TAFHIO
TAF AMD
KHIO 280621Z 2806/2906 19011KT P6SM -SHRA SCT015 OVC035
      TEMPO 2806/2809 BKN015
     FM280900 16006KT 5SM -RA BR BKN012 OVC025
     FM281400 18010KT 4SM RA BR SCT008 BKN015 OVC030
     FM282300 25012G20KT 3SM RA BR BKN008 OVC020
     FM290300 29011KT 6SM -RA SCT015 OVC025=



000
FTUS46 KPQR 280621 AAA
TAFHIO
TAF AMD
KHIO 280621Z 2806/2906 19011KT P6SM -SHRA SCT015 OVC035
      TEMPO 2806/2809 BKN015
     FM280900 16006KT 5SM -RA BR BKN012 OVC025
     FM281400 18010KT 4SM RA BR SCT008 BKN015 OVC030
     FM282300 25012G20KT 3SM RA BR BKN008 OVC020
     FM290300 29011KT 6SM -RA SCT015 OVC025=



000
FTUS46 KPQR 280531 AAA
TAFPDX
TAF AMD
KPDX 280531Z 2806/2906 18012KT 6SM -SHRA BR SCT020 BKN029 OVC050
     FM281400 16011KT 5SM RA BR SCT015 BKN025 OVC035
     FM282000 19013G22KT P6SM -RA SCT015 BKN025 OVC035
     FM290300 29009KT P6SM -SHRA SCT025 OVC045=



000
FTUS46 KPQR 280530
TAFHIO
TAF
KHIO 280530Z 2806/2906 19011KT P6SM -SHRA SCT015 OVC035
     FM280900 16006KT 5SM -RA BR BKN012 OVC025
     FM281400 18010KT 4SM RA BR SCT008 BKN015 OVC030
     FM282300 25012G20KT 3SM RA BR BKN008 OVC020
     FM290300 29011KT 6SM -RA SCT015 OVC025=



000
FTUS46 KPQR 280530
TAFPDX
TAF
KPDX 280530Z 2806/2906 18012KT 6SM -SHRA BR SCT025 BKN035 OVC050
     FM281400 16011KT 5SM RA BR SCT015 BKN025 OVC035
     FM282000 19013G22KT P6SM -RA SCT015 BKN025 OVC035
     FM290300 29009KT P6SM -SHRA SCT025 OVC045=



000
FTUS46 KPQR 280530
TAFAST
TAF
KAST 280530Z 2806/2906 20016G28KT 6SM -RA BR BKN009 OVC015
     FM281500 22012G20KT 4SM RA BR SCT008 OVC018
     FM282300 30012G20KT 5SM RA BR SCT008 BKN018 OVC030=



000
FTUS46 KPQR 280530
TAFONP
TAF
KONP 280530Z 2806/2906 19012G20KT 5SM -RA BR SCT008 BKN010 OVC020
     FM280700 19012G20KT 3SM -RA BR BKN008 OVC015
     FM281600 22015G25KT 5SM -SHRA BR SCT008 BKN018 OVC030
     FM282200 22015G25KT 5SM -RA BR SCT008 BKN025 OVC035=



000
FTUS46 KPQR 280530
TAFTTD
TAF
KTTD 280530Z 2806/2906 22011KT P6SM -SHRA SCT015 OVC045
     FM280900 19010KT 6SM -RA BR SCT015 OVC030
     FM281500 20008KT 5SM RA BR BKN015 OVC025
     FM282100 19012G20KT P6SM -RA SCT015 OVC035=



000
FTUS46 KPQR 280530
TAFEUG
TAF
KEUG 280530Z 2806/2906 18008KT P6SM -RA SCT025 OVC040
     FM281000 18014KT 5SM RA BR SCT015 OVC030
     FM281600 18015KT P6SM -RA SCT015 OVC035
     FM290500 21010KT 5SM -RA BR OVC015=



000
FTUS46 KPQR 280530
TAFSLE
TAF
KSLE 280530Z 2806/2906 17011KT P6SM -SHRA SCT020 OVC035
     FM281300 18012G20KT 5SM RA BR SCT012 OVC025
     FM281900 18014G24KT 6SM -RA BR SCT012 OVC035
     FM290300 21011KT P6SM -RA OVC018=



000
FTUS46 KPQR 280530
TAFPDX
TAF
KPDX 280530Z 2806/2906 18012KT 6SM -SHRA BR SCT025 BKN035 OVC050
     FM281400 16011KT 5SM RA BR SCT015 BKN025 OVC035
     FM282000 19013G22KT P6SM -RA SCT015 BKN025 OVC035
     FM290300 29009KT P6SM -SHRA SCT025 OVC045=



000
FTUS46 KPQR 280530
TAFAST
TAF
KAST 280530Z 2806/2906 20016G28KT 6SM -RA BR BKN009 OVC015
     FM281500 22012G20KT 4SM RA BR SCT008 OVC018
     FM282300 30012G20KT 5SM RA BR SCT008 BKN018 OVC030=



000
FTUS46 KPQR 280530
TAFEUG
TAF
KEUG 280530Z 2806/2906 18008KT P6SM -RA SCT025 OVC040
     FM281000 18014KT 5SM RA BR SCT015 OVC030
     FM281600 18015KT P6SM -RA SCT015 OVC035
     FM290500 21010KT 5SM -RA BR OVC015=



000
FTUS46 KPQR 280530
TAFONP
TAF
KONP 280530Z 2806/2906 19012G20KT 5SM -RA BR SCT008 BKN010 OVC020
     FM280700 19012G20KT 3SM -RA BR BKN008 OVC015
     FM281600 22015G25KT 5SM -SHRA BR SCT008 BKN018 OVC030
     FM282200 22015G25KT 5SM -RA BR SCT008 BKN025 OVC035=



000
FTUS46 KPQR 280530
TAFTTD
TAF
KTTD 280530Z 2806/2906 22011KT P6SM -SHRA SCT015 OVC045
     FM280900 19010KT 6SM -RA BR SCT015 OVC030
     FM281500 20008KT 5SM RA BR BKN015 OVC025
     FM282100 19012G20KT P6SM -RA SCT015 OVC035=



000
FTUS46 KPQR 280530
TAFSLE
TAF
KSLE 280530Z 2806/2906 17011KT P6SM -SHRA SCT020 OVC035
     FM281300 18012G20KT 5SM RA BR SCT012 OVC025
     FM281900 18014G24KT 6SM -RA BR SCT012 OVC035
     FM290300 21011KT P6SM -RA OVC018=



000
FTUS46 KPQR 280530
TAFHIO
TAF
KHIO 280530Z 2806/2906 19011KT P6SM -SHRA SCT015 OVC035
     FM280900 16006KT 5SM -RA BR BKN012 OVC025
     FM281400 18010KT 4SM RA BR SCT008 BKN015 OVC030
     FM282300 25012G20KT 3SM RA BR BKN008 OVC020
     FM290300 29011KT 6SM -RA SCT015 OVC025=



000
FTUS46 KPQR 280306 AAA
TAFONP
TAF AMD
KONP 280306Z 2803/2824 19011KT 5SM -RA BR SCT008 BKN010 OVC020
     FM280700 19012G20KT 3SM -RA BR BKN006 OVC015
     FM281600 22015G25KT 5SM -SHRA BR SCT008 BKN018 OVC030
     FM282200 22015G25KT 5SM -RA BR SCT008 BKN025 OVC035=



000
FTUS46 KPQR 280306 AAA
TAFONP
TAF AMD
KONP 280306Z 2803/2824 19011KT 5SM -RA BR SCT008 BKN010 OVC020
     FM280700 19012G20KT 3SM -RA BR BKN006 OVC015
     FM281600 22015G25KT 5SM -SHRA BR SCT008 BKN018 OVC030
     FM282200 22015G25KT 5SM -RA BR SCT008 BKN025 OVC035=



000
FTUS46 KPQR 280234 AAA
TAFTTD
TAF AMD
KTTD 280234Z 2803/2824 20011G21KT P6SM -SHRA SCT015 BKN035 OVC050
     FM280600 16005KT 6SM -RA BR BKN015 OVC025
     FM281500 20008KT 5SM RA BR BKN015 OVC025
     FM282100 19012G20KT P6SM -RA SCT015 OVC025=



000
FTUS46 KPQR 280234 AAA
TAFTTD
TAF AMD
KTTD 280234Z 2803/2824 20011G21KT P6SM -SHRA SCT015 BKN035 OVC050
     FM280600 16005KT 6SM -RA BR BKN015 OVC025
     FM281500 20008KT 5SM RA BR BKN015 OVC025
     FM282100 19012G20KT P6SM -RA SCT015 OVC025=



000
FTUS46 KPQR 280232 AAA
TAFPDX
TAF AMD
KPDX 280232Z 2803/2824 18013G25KT 6SM -SHRA BR BKN018 OVC030
     FM281400 16011KT 5SM RA BR SCT015 BKN025 OVC035
     FM282000 19013G22KT P6SM -RA SCT015 BKN025 OVC035=



000
FTUS46 KPQR 280232 AAB
TAFAST
TAF AMD
KAST 280232Z 2803/2824 20012G22KT 6SM -SHRA BR BKN009 OVC015
     FM280600 20012KT 6SM -SHRA BR SCT008 BKN010 OVC025
     FM281500 22012KT 4SM RA BR SCT008 OVC018
     FM282300 32012G20KT 5SM RA BR SCT008 BKN018 OVC030=



000
FTUS46 KPQR 280232 AAB
TAFAST
TAF AMD
KAST 280232Z 2803/2824 20012G22KT 6SM -SHRA BR BKN009 OVC015
     FM280600 20012KT 6SM -SHRA BR SCT008 BKN010 OVC025
     FM281500 22012KT 4SM RA BR SCT008 OVC018
     FM282300 32012G20KT 5SM RA BR SCT008 BKN018 OVC030=



000
FTUS46 KPQR 280039 AAA
TAFAST
TAF AMD
KAST 280039Z 2801/2824 20012G22KT 6SM -SHRA BR SCT008 BKN015 OVC035
     FM280200 20012KT 6SM -SHRA BR SCT008 BKN010 OVC025
     FM281500 22012KT 4SM RA BR SCT008 OVC018
     FM282300 32012G20KT 5SM RA BR SCT008 BKN018 OVC030=



000
FTUS46 KPQR 280039 AAA
TAFAST
TAF AMD
KAST 280039Z 2801/2824 20012G22KT 6SM -SHRA BR SCT008 BKN015 OVC035
     FM280200 20012KT 6SM -SHRA BR SCT008 BKN010 OVC025
     FM281500 22012KT 4SM RA BR SCT008 OVC018
     FM282300 32012G20KT 5SM RA BR SCT008 BKN018 OVC030=



000
FTUS46 KPQR 272324
TAFHIO
TAF
KHIO 272324Z 2800/2824 19011KT P6SM -SHRA BKN015 OVC035
     FM280300 16006KT 5SM -RA BR BKN012 OVC025
     FM281400 18010KT 4SM RA BR SCT008 BKN015 OVC030
     FM282300 25012G20KT 3SM RA BR BKN008 OVC020=



000
FTUS46 KPQR 272324
TAFPDX
TAF
KPDX 272324Z 2800/2824 18012G20KT P6SM -SHRA BKN022 OVC035
     FM280200 15008KT 6SM -SHRA BR BKN018 OVC030
     FM281400 16011KT 5SM RA BR SCT015 BKN025 OVC035
     FM282000 19013G22KT P6SM -RA SCT015 BKN025 OVC035=



000
FTUS46 KPQR 272324
TAFSLE
TAF
KSLE 272324Z 2800/2824 18012G22KT P6SM -SHRA SCT015 OVC035
     FM280200 18011KT P6SM -SHRA SCT015 BKN025 OVC035
     FM280500 17008KT P6SM -RA SCT012 OVC025
     FM281300 18012G20KT 5SM RA BR SCT012 OVC025
     FM281900 18014G24KT 6SM -RA BR SCT012 OVC035=



000
FTUS46 KPQR 272324
TAFONP
TAF
KONP 272324Z 2800/2824 19011KT 3SM -RA BR SCT008 BKN010 OVC020
     FM280300 19012G20KT 3SM -RA BR BKN006 OVC015
     FM281600 22015G25KT 5SM -SHRA BR SCT008 BKN018 OVC030
     FM282200 22015G25KT 5SM -RA BR SCT008 BKN025 OVC035=



000
FTUS46 KPQR 272324
TAFEUG
TAF
KEUG 272324Z 2800/2824 17007KT P6SM -SHRA SCT012 BKN035 OVC060
     FM280200 18009KT P6SM -RA SCT012 OVC025
     FM281000 18011KT 5SM RA BR BKN012 OVC025
     FM281600 18012G20KT P6SM -RA SCT015 OVC035=



000
FTUS46 KPQR 272324
TAFTTD
TAF
KTTD 272324Z 2800/2824 20008KT P6SM -SHRA SCT015 BKN035 OVC050
     FM280300 16005KT 6SM -RA BR BKN015 OVC025
     FM281500 20008KT 5SM RA BR BKN015 OVC025
     FM282100 19012G20KT P6SM -RA SCT015 OVC025=



000
FTUS46 KPQR 272324
TAFAST
TAF
KAST 272324Z 2800/2824 20012G22KT 6SM -SHRA BR SCT008 OVC035
     FM280200 20012KT 6SM -SHRA BR SCT008 BKN022 OVC035
     FM281500 22012KT 4SM RA BR SCT008 OVC018
     FM282300 32012G20KT 5SM RA BR SCT008 BKN018 OVC030=



000
FTUS46 KPQR 272324
TAFPDX
TAF
KPDX 272324Z 2800/2824 18012G20KT P6SM -SHRA BKN022 OVC035
     FM280200 15008KT 6SM -SHRA BR BKN018 OVC030
     FM281400 16011KT 5SM RA BR SCT015 BKN025 OVC035
     FM282000 19013G22KT P6SM -RA SCT015 BKN025 OVC035=



000
FTUS46 KPQR 272324
TAFHIO
TAF
KHIO 272324Z 2800/2824 19011KT P6SM -SHRA BKN015 OVC035
     FM280300 16006KT 5SM -RA BR BKN012 OVC025
     FM281400 18010KT 4SM RA BR SCT008 BKN015 OVC030
     FM282300 25012G20KT 3SM RA BR BKN008 OVC020=



000
FTUS46 KPQR 272324
TAFONP
TAF
KONP 272324Z 2800/2824 19011KT 3SM -RA BR SCT008 BKN010 OVC020
     FM280300 19012G20KT 3SM -RA BR BKN006 OVC015
     FM281600 22015G25KT 5SM -SHRA BR SCT008 BKN018 OVC030
     FM282200 22015G25KT 5SM -RA BR SCT008 BKN025 OVC035=



000
FTUS46 KPQR 272324
TAFSLE
TAF
KSLE 272324Z 2800/2824 18012G22KT P6SM -SHRA SCT015 OVC035
     FM280200 18011KT P6SM -SHRA SCT015 BKN025 OVC035
     FM280500 17008KT P6SM -RA SCT012 OVC025
     FM281300 18012G20KT 5SM RA BR SCT012 OVC025
     FM281900 18014G24KT 6SM -RA BR SCT012 OVC035=



000
FTUS46 KPQR 272324
TAFEUG
TAF
KEUG 272324Z 2800/2824 17007KT P6SM -SHRA SCT012 BKN035 OVC060
     FM280200 18009KT P6SM -RA SCT012 OVC025
     FM281000 18011KT 5SM RA BR BKN012 OVC025
     FM281600 18012G20KT P6SM -RA SCT015 OVC035=



000
FTUS46 KPQR 272324
TAFAST
TAF
KAST 272324Z 2800/2824 20012G22KT 6SM -SHRA BR SCT008 OVC035
     FM280200 20012KT 6SM -SHRA BR SCT008 BKN022 OVC035
     FM281500 22012KT 4SM RA BR SCT008 OVC018
     FM282300 32012G20KT 5SM RA BR SCT008 BKN018 OVC030=



000
FTUS46 KPQR 272324
TAFTTD
TAF
KTTD 272324Z 2800/2824 20008KT P6SM -SHRA SCT015 BKN035 OVC050
     FM280300 16005KT 6SM -RA BR BKN015 OVC025
     FM281500 20008KT 5SM RA BR BKN015 OVC025
     FM282100 19012G20KT P6SM -RA SCT015 OVC025=



000
FTUS46 KPQR 272055 AAA
TAFPDX
TAF AMD
KPDX 272055Z 2721/2818 18012G20KT P6SM -SHRA BKN019 OVC035
     FM280200 15008KT 6SM -SHRA BR BKN015 OVC030
     FM281400 16011KT 5SM RA BR SCT015 BKN025 OVC035=



000
FTUS46 KPQR 272055 AAA
TAFPDX
TAF AMD
KPDX 272055Z 2721/2818 18012G20KT P6SM -SHRA BKN019 OVC035
     FM280200 15008KT 6SM -SHRA BR BKN015 OVC030
     FM281400 16011KT 5SM RA BR SCT015 BKN025 OVC035=



000
FTUS46 KPQR 272022 AAA
TAFSLE
TAF AMD
KSLE 272022Z 2720/2818 18012G22KT 6SM -SHRA BR BKN015 OVC035
     FM280100 18011KT P6SM -SHRA SCT015 BKN025 OVC035
     FM280400 17008KT P6SM -RA SCT012 OVC025
     FM281300 18012G20KT 5SM RA BR SCT012 OVC025=



000
FTUS46 KPQR 272022 AAA
TAFSLE
TAF AMD
KSLE 272022Z 2720/2818 18012G22KT 6SM -SHRA BR BKN015 OVC035
     FM280100 18011KT P6SM -SHRA SCT015 BKN025 OVC035
     FM280400 17008KT P6SM -RA SCT012 OVC025
     FM281300 18012G20KT 5SM RA BR SCT012 OVC025=



000
FTUS46 KPQR 271733
TAFONP
TAF
KONP 271733Z 2718/2818 20018G28KT 3SM -RA BR BKN008 OVC015
     FM272100 21015G25KT 5SM -SHRA BR SCT008 BKN012 OVC020
     FM280600 19012G20KT 3SM RA BR BKN008 OVC015
     FM281600 22015G25KT 5SM -SHRA BR SCT008 BKN015 OVC025=



000
FTUS46 KPQR 271733
TAFPDX
TAF
KPDX 271733Z 2718/2818 20012KT 6SM -RA BR SCT025 OVC035
     FM272100 16011KT P6SM -SHRA BKN022 OVC035
     FM280200 15008KT 6SM -RA BR BKN015 OVC030
     FM281400 16011KT 5SM RA BR SCT015 BKN025 OVC035=



000
FTUS46 KPQR 271733
TAFEUG
TAF
KEUG 271733Z 2718/2818 17008KT P6SM -RA SCT020 OVC040
     FM272200 17007KT P6SM -SHRA SCT012 BKN025 OVC035
     FM280200 18009KT P6SM -RA SCT012 OVC025
     FM281000 18011KT 5SM RA BR BKN012 OVC025=



000
FTUS46 KPQR 271733
TAFHIO
TAF
KHIO 271733Z 2718/2818 19011KT 6SM -RA BR SCT015 OVC035
     FM272100 19008KT P6SM -SHRA BKN015 OVC030
     FM280200 16006KT 5SM -RA BR BKN012 OVC025
     FM281400 18010KT 5SM RA BR SCT008 BKN018 OVC030=



000
FTUS46 KPQR 271733
TAFSLE
TAF
KSLE 271733Z 2718/2818 18012KT P6SM -RA SCT020 OVC040
     FM272200 18009KT P6SM -SHRA SCT015 BKN025 OVC035
     FM280300 17008KT P6SM -RA SCT012 OVC025
     FM281300 18012G20KT 5SM RA BR SCT012 OVC025=



000
FTUS46 KPQR 271733
TAFTTD
TAF
KTTD 271733Z 2718/2818 19011KT P6SM -RA SCT020 OVC040
     FM272100 14008KT P6SM -SHRA SCT015 BKN025 OVC040
     FM280200 12005KT 6SM -RA BR BKN015 OVC025
     FM281500 11008KT 5SM RA BR BKN015 OVC025=



000
FTUS46 KPQR 271733
TAFAST
TAF
KAST 271733Z 2718/2818 21017G27KT 5SM -SHRA BR SCT009 OVC025
     FM272000 20012G22KT 6SM -SHRA BR SCT008 OVC018
     FM280100 20012KT 6SM -SHRA BR SCT008 OVC018
     FM281500 22012KT 4SM RA BR SCT008 OVC018=



000
FTUS46 KPQR 271733
TAFSLE
TAF
KSLE 271733Z 2718/2818 18012KT P6SM -RA SCT020 OVC040
     FM272200 18009KT P6SM -SHRA SCT015 BKN025 OVC035
     FM280300 17008KT P6SM -RA SCT012 OVC025
     FM281300 18012G20KT 5SM RA BR SCT012 OVC025=



000
FTUS46 KPQR 271733
TAFPDX
TAF
KPDX 271733Z 2718/2818 20012KT 6SM -RA BR SCT025 OVC035
     FM272100 16011KT P6SM -SHRA BKN022 OVC035
     FM280200 15008KT 6SM -RA BR BKN015 OVC030
     FM281400 16011KT 5SM RA BR SCT015 BKN025 OVC035=



000
FTUS46 KPQR 271733
TAFONP
TAF
KONP 271733Z 2718/2818 20018G28KT 3SM -RA BR BKN008 OVC015
     FM272100 21015G25KT 5SM -SHRA BR SCT008 BKN012 OVC020
     FM280600 19012G20KT 3SM RA BR BKN008 OVC015
     FM281600 22015G25KT 5SM -SHRA BR SCT008 BKN015 OVC025=



000
FTUS46 KPQR 271733
TAFTTD
TAF
KTTD 271733Z 2718/2818 19011KT P6SM -RA SCT020 OVC040
     FM272100 14008KT P6SM -SHRA SCT015 BKN025 OVC040
     FM280200 12005KT 6SM -RA BR BKN015 OVC025
     FM281500 11008KT 5SM RA BR BKN015 OVC025=



000
FTUS46 KPQR 271733
TAFAST
TAF
KAST 271733Z 2718/2818 21017G27KT 5SM -SHRA BR SCT009 OVC025
     FM272000 20012G22KT 6SM -SHRA BR SCT008 OVC018
     FM280100 20012KT 6SM -SHRA BR SCT008 OVC018
     FM281500 22012KT 4SM RA BR SCT008 OVC018=



000
FTUS46 KPQR 271733
TAFHIO
TAF
KHIO 271733Z 2718/2818 19011KT 6SM -RA BR SCT015 OVC035
     FM272100 19008KT P6SM -SHRA BKN015 OVC030
     FM280200 16006KT 5SM -RA BR BKN012 OVC025
     FM281400 18010KT 5SM RA BR SCT008 BKN018 OVC030=



000
FTUS46 KPQR 271733
TAFEUG
TAF
KEUG 271733Z 2718/2818 17008KT P6SM -RA SCT020 OVC040
     FM272200 17007KT P6SM -SHRA SCT012 BKN025 OVC035
     FM280200 18009KT P6SM -RA SCT012 OVC025
     FM281000 18011KT 5SM RA BR BKN012 OVC025=



000
FTUS46 KPQR 271612 AAA
TAFSLE
TAF AMD
KSLE 271612Z 2716/2812 19012G20KT 6SM -RA BR SCT025 OVC040
     FM271800 19012KT 5SM -RA BR SCT015 OVC025
     FM272200 19009KT P6SM -SHRA SCT012 BKN025 OVC040
     FM280400 18009KT P6SM -RA SCT012 BKN025 OVC040=



000
FTUS46 KPQR 271612 AAA
TAFSLE
TAF AMD
KSLE 271612Z 2716/2812 19012G20KT 6SM -RA BR SCT025 OVC040
     FM271800 19012KT 5SM -RA BR SCT015 OVC025
     FM272200 19009KT P6SM -SHRA SCT012 BKN025 OVC040
     FM280400 18009KT P6SM -RA SCT012 BKN025 OVC040=



000
FTUS46 KPQR 271612 AAA
TAFSLE
TAF AMD
KSLE 271612Z 2716/2812 19012G20KT 6SM -RA BR SCT025 OVC040
     FM271800 19012KT 5SM -RA BR SCT015 OVC025
     FM272200 19009KT P6SM -SHRA SCT012 BKN025 OVC040
     FM280400 18009KT P6SM -RA SCT012 BKN025 OVC040=



000
FTUS46 KPQR 271611 AAA
TAFTTD
TAF AMD
KTTD 271611Z 2716/2812 20010G18KT P6SM -RA OVC040
     FM271800 19006KT 5SM -RA BR SCT015 OVC025
     FM272100 14008KT P6SM -SHRA SCT012 BKN025 OVC040=



000
FTUS46 KPQR 271611 AAA
TAFTTD
TAF AMD
KTTD 271611Z 2716/2812 20010G18KT P6SM -RA OVC040
     FM271800 19006KT 5SM -RA BR SCT015 OVC025
     FM272100 14008KT P6SM -SHRA SCT012 BKN025 OVC040=



000
FTUS46 KPQR 271540 AAB
TAFPDX
TAF AMD
KPDX 271540Z 2716/2812 15007KT P6SM -RA SCT020 OVC040 WS020/21040KT
     FM271800 13013KT 6SM -RA BR SCT025 OVC035
     FM272100 16011KT P6SM -SHRA SCT020 BKN030 OVC040=



000
FTUS46 KPQR 271540 AAB
TAFPDX
TAF AMD
KPDX 271540Z 2716/2812 15007KT P6SM -RA SCT020 OVC040 WS020/21040KT
     FM271800 13013KT 6SM -RA BR SCT025 OVC035
     FM272100 16011KT P6SM -SHRA SCT020 BKN030 OVC040=



000
FTUS46 KPQR 271448 AAA
TAFPDX
TAF AMD
KPDX 271448Z 2715/2812 10011KT P6SM -RA SCT020 OVC040
     FM271700 13013KT 6SM -RA BR SCT025 OVC035
     FM272100 16011KT P6SM -SHRA SCT020 BKN030 OVC040=



000
FTUS46 KPQR 271448 AAA
TAFPDX
TAF AMD
KPDX 271448Z 2715/2812 10011KT P6SM -RA SCT020 OVC040
     FM271700 13013KT 6SM -RA BR SCT025 OVC035
     FM272100 16011KT P6SM -SHRA SCT020 BKN030 OVC040=



000
FTUS46 KPQR 271135
TAFPDX
TAF
KPDX 271135Z 2712/2812 10011KT P6SM -RA OVC050
     FM271300 13012KT P6SM -RA SCT020 OVC040
     FM271600 15013KT 6SM -RA BR SCT018 OVC025
     FM272100 16011KT P6SM -SHRA SCT012 BKN025 OVC040=



000
FTUS46 KPQR 271135
TAFHIO
TAF
KHIO 271135Z 2712/2812 19012KT P6SM -RA SCT020 OVC035
     FM271500 19011KT 5SM -RA BR SCT012 OVC022
     FM272000 19008KT P6SM -SHRA SCT012 BKN020 OVC030=



000
FTUS46 KPQR 271135
TAFEUG
TAF
KEUG 271135Z 2712/2812 19005KT P6SM VCSH OVC060
     FM271400 19005KT P6SM -RA SCT025 OVC045
     FM271700 19010KT 5SM -RA BR SCT012 OVC025
     FM272200 19009KT P6SM -SHRA SCT012 BKN025 OVC040
     FM280200 18009KT P6SM -RA SCT012 BKN025 OVC040=



000
FTUS46 KPQR 271135
TAFAST
TAF
KAST 271135Z 2712/2812 20018G28KT 4SM -RA BR BKN009 OVC015
     FM271300 21012G22KT 5SM -SHRA BR BKN009 OVC018
     FM271900 20010G20KT 6SM -SHRA BR SCT008 OVC018
     FM280100 20012KT 6SM -SHRA BR SCT008 OVC018=



000
FTUS46 KPQR 271135
TAFTTD
TAF
KTTD 271135Z 2712/2812 11008KT P6SM -RA OVC050
     FM271400 12006KT P6SM -RA SCT020 OVC040
     FM271600 13004KT 5SM -RA BR SCT015 OVC025
     FM272100 14008KT P6SM -SHRA SCT012 BKN025 OVC040=



000
FTUS46 KPQR 271135
TAFONP
TAF
KONP 271135Z 2712/2812 18022G34KT 2SM -RA BR BKN005 OVC010
     FM271500 20018G28KT 3SM -RA BR BKN008 OVC015
     FM272000 21015G25KT 5SM -SHRA BR SCT008 BKN012 OVC020
     FM280600 18012G20KT 4SM -RA BR SCT008 OVC012=



000
FTUS46 KPQR 271135
TAFSLE
TAF
KSLE 271135Z 2712/2812 18011KT P6SM -RA OVC050
     FM271400 19012G20KT 6SM -RA BR SCT025 OVC035
     FM271600 19012KT 5SM -RA BR SCT015 OVC025
     FM272200 19009KT P6SM -SHRA SCT012 BKN025 OVC040
     FM280400 18009KT P6SM -RA SCT012 BKN025 OVC040=



000
FTUS46 KPQR 271135
TAFEUG
TAF
KEUG 271135Z 2712/2812 19005KT P6SM VCSH OVC060
     FM271400 19005KT P6SM -RA SCT025 OVC045
     FM271700 19010KT 5SM -RA BR SCT012 OVC025
     FM272200 19009KT P6SM -SHRA SCT012 BKN025 OVC040
     FM280200 18009KT P6SM -RA SCT012 BKN025 OVC040=



000
FTUS46 KPQR 271135
TAFTTD
TAF
KTTD 271135Z 2712/2812 11008KT P6SM -RA OVC050
     FM271400 12006KT P6SM -RA SCT020 OVC040
     FM271600 13004KT 5SM -RA BR SCT015 OVC025
     FM272100 14008KT P6SM -SHRA SCT012 BKN025 OVC040=



000
FTUS46 KPQR 271135
TAFONP
TAF
KONP 271135Z 2712/2812 18022G34KT 2SM -RA BR BKN005 OVC010
     FM271500 20018G28KT 3SM -RA BR BKN008 OVC015
     FM272000 21015G25KT 5SM -SHRA BR SCT008 BKN012 OVC020
     FM280600 18012G20KT 4SM -RA BR SCT008 OVC012=



000
FTUS46 KPQR 271135
TAFHIO
TAF
KHIO 271135Z 2712/2812 19012KT P6SM -RA SCT020 OVC035
     FM271500 19011KT 5SM -RA BR SCT012 OVC022
     FM272000 19008KT P6SM -SHRA SCT012 BKN020 OVC030=



000
FTUS46 KPQR 271135
TAFAST
TAF
KAST 271135Z 2712/2812 20018G28KT 4SM -RA BR BKN009 OVC015
     FM271300 21012G22KT 5SM -SHRA BR BKN009 OVC018
     FM271900 20010G20KT 6SM -SHRA BR SCT008 OVC018
     FM280100 20012KT 6SM -SHRA BR SCT008 OVC018=



000
FTUS46 KPQR 271135
TAFSLE
TAF
KSLE 271135Z 2712/2812 18011KT P6SM -RA OVC050
     FM271400 19012G20KT 6SM -RA BR SCT025 OVC035
     FM271600 19012KT 5SM -RA BR SCT015 OVC025
     FM272200 19009KT P6SM -SHRA SCT012 BKN025 OVC040
     FM280400 18009KT P6SM -RA SCT012 BKN025 OVC040=



000
FTUS46 KPQR 271135
TAFPDX
TAF
KPDX 271135Z 2712/2812 10011KT P6SM -RA OVC050
     FM271300 13012KT P6SM -RA SCT020 OVC040
     FM271600 15013KT 6SM -RA BR SCT018 OVC025
     FM272100 16011KT P6SM -SHRA SCT012 BKN025 OVC040=



000
FTUS46 KPQR 270933 AAB
TAFONP
TAF AMD
KONP 270933Z 2710/2806 18024G34KT 4SM -RA SCT009 OVC015
      TEMPO 2710/2714 2SM RA BKN009
     FM271400 20020G28KT 5SM -RA BR BKN015 OVC025
     FM271800 21015G25KT 4SM -RA BR BKN007 OVC015=



000
FTUS46 KPQR 270933 AAB
TAFONP
TAF AMD
KONP 270933Z 2710/2806 18024G34KT 4SM -RA SCT009 OVC015
      TEMPO 2710/2714 2SM RA BKN009
     FM271400 20020G28KT 5SM -RA BR BKN015 OVC025
     FM271800 21015G25KT 4SM -RA BR BKN007 OVC015=



000
FTUS46 KPQR 270933 AAA
TAFAST
TAF AMD
KAST 270933Z 2710/2806 19018G28KT 4SM -RA BR SCT012 BKN025 OVC040
     FM271200 21017G27KT 5SM SHRA BR BKN012 OVC025
     FM271800 20012G20KT 5SM -SHRA BR SCT008 OVC018=



000
FTUS46 KPQR 270933 AAA
TAFAST
TAF AMD
KAST 270933Z 2710/2806 19018G28KT 4SM -RA BR SCT012 BKN025 OVC040
     FM271200 21017G27KT 5SM SHRA BR BKN012 OVC025
     FM271800 20012G20KT 5SM -SHRA BR SCT008 OVC018=



000
FTUS46 KPQR 270910 AAA
TAFPDX
TAF AMD
KPDX 270910Z 2709/2806 10010KT P6SM VCSH SCT050 OVC080
     FM271100 12011KT P6SM -RA OVC060
     FM271300 15012KT P6SM -RA SCT020 OVC040
     FM271700 18012G20KT 6SM -SHRA BR BKN018 OVC025
     FM272100 19011KT P6SM -SHRA SCT012 BKN025 OVC040=



000
FTUS46 KPQR 270910 AAA
TAFPDX
TAF AMD
KPDX 270910Z 2709/2806 10010KT P6SM VCSH SCT050 OVC080
     FM271100 12011KT P6SM -RA OVC060
     FM271300 15012KT P6SM -RA SCT020 OVC040
     FM271700 18012G20KT 6SM -SHRA BR BKN018 OVC025
     FM272100 19011KT P6SM -SHRA SCT012 BKN025 OVC040=



000
FTUS46 KPQR 270726 AAA
TAFONP
TAF AMD
KONP 270726Z 2707/2806 19025G35KT P6SM SCT018 BKN035 OVC120
      TEMPO 2707/2710 -RA BKN018
     FM271000 19025G35KT P6SM -RA BKN015 OVC025
     FM271400 19020G30KT 5SM -RA BR BKN015 OVC025
     FM271800 21015G25KT 4SM -RA BR BKN007 OVC015=



000
FTUS46 KPQR 270726 AAA
TAFONP
TAF AMD
KONP 270726Z 2707/2806 19025G35KT P6SM SCT018 BKN035 OVC120
      TEMPO 2707/2710 -RA BKN018
     FM271000 19025G35KT P6SM -RA BKN015 OVC025
     FM271400 19020G30KT 5SM -RA BR BKN015 OVC025
     FM271800 21015G25KT 4SM -RA BR BKN007 OVC015=



000
FTUS46 KPQR 270539
TAFPDX
TAF
KPDX 270539Z 2706/2806 09009KT P6SM SCT050 OVC150
     FM271000 14011KT P6SM -RA OVC060
     FM271300 15012KT P6SM -RA SCT020 OVC040
     FM271700 18012G20KT 6SM -SHRA BR BKN018 OVC025
     FM272100 19011KT P6SM -SHRA SCT012 BKN025 OVC040=



000
FTUS46 KPQR 270539
TAFTTD
TAF
KTTD 270539Z 2706/2806 09008KT P6SM OVC120
     FM271100 10012KT P6SM -RA OVC050
     FM271400 VRB04KT P6SM -RA SCT020 OVC040
     FM271700 VRB04KT 5SM -SHRA BR BKN017 OVC030
     FM272100 19008KT P6SM -SHRA SCT012 BKN025 OVC040=



000
FTUS46 KPQR 270539
TAFHIO
TAF
KHIO 270539Z 2706/2806 17004KT P6SM SCT045 BKN130
     FM270900 17008KT 5SM -RA BR OVC045
     FM271200 18012KT 5SM -RA BR BKN022 OVC035
     FM271600 19011KT 4SM -SHRA BR SCT007 OVC018
     FM272100 19008KT P6SM -SHRA SCT007 BKN020 OVC030=



000
FTUS46 KPQR 270539
TAFSLE
TAF
KSLE 270539Z 2706/2806 14007KT P6SM BKN200
     FM270700 18012KT P6SM OVC120
     FM271100 18011KT P6SM -RA OVC050
     FM271400 19012G20KT 6SM -RA BR SCT015 OVC035
     FM271700 19010KT 5SM -SHRA BR BKN018 OVC025=



000
FTUS46 KPQR 270539
TAFAST
TAF
KAST 270539Z 2706/2806 19018G28KT 6SM -RA BR SCT012 BKN025 OVC040
     FM271200 21017G27KT 5SM SHRA BR BKN012 OVC025
     FM271800 20012G20KT 5SM -SHRA BR SCT008 OVC018=



000
FTUS46 KPQR 270539
TAFONP
TAF
KONP 270539Z 2706/2806 19020G30KT P6SM SCT020 OVC120
     FM270800 19025G35KT P6SM OVC060
     FM271400 19020G30KT 5SM -RA BR BKN022 OVC035
     FM271800 21015G25KT 4SM -RA BR BKN007 OVC015=



000
FTUS46 KPQR 270539
TAFEUG
TAF
KEUG 270539Z 2706/2806 21008KT P6SM BKN120 OVC200
     FM271200 19010KT 6SM -RA BR OVC050
     FM271600 19012KT 3SM -RA BR BKN012 OVC025
     FM271900 21009KT 6SM -SHRA BR BKN017 OVC030=



000
FTUS46 KPQR 270539
TAFONP
TAF
KONP 270539Z 2706/2806 19020G30KT P6SM SCT020 OVC120
     FM270800 19025G35KT P6SM OVC060
     FM271400 19020G30KT 5SM -RA BR BKN022 OVC035
     FM271800 21015G25KT 4SM -RA BR BKN007 OVC015=



000
FTUS46 KPQR 270539
TAFHIO
TAF
KHIO 270539Z 2706/2806 17004KT P6SM SCT045 BKN130
     FM270900 17008KT 5SM -RA BR OVC045
     FM271200 18012KT 5SM -RA BR BKN022 OVC035
     FM271600 19011KT 4SM -SHRA BR SCT007 OVC018
     FM272100 19008KT P6SM -SHRA SCT007 BKN020 OVC030=



000
FTUS46 KPQR 270539
TAFTTD
TAF
KTTD 270539Z 2706/2806 09008KT P6SM OVC120
     FM271100 10012KT P6SM -RA OVC050
     FM271400 VRB04KT P6SM -RA SCT020 OVC040
     FM271700 VRB04KT 5SM -SHRA BR BKN017 OVC030
     FM272100 19008KT P6SM -SHRA SCT012 BKN025 OVC040=



000
FTUS46 KPQR 270539
TAFAST
TAF
KAST 270539Z 2706/2806 19018G28KT 6SM -RA BR SCT012 BKN025 OVC040
     FM271200 21017G27KT 5SM SHRA BR BKN012 OVC025
     FM271800 20012G20KT 5SM -SHRA BR SCT008 OVC018=



000
FTUS46 KPQR 270539
TAFEUG
TAF
KEUG 270539Z 2706/2806 21008KT P6SM BKN120 OVC200
     FM271200 19010KT 6SM -RA BR OVC050
     FM271600 19012KT 3SM -RA BR BKN012 OVC025
     FM271900 21009KT 6SM -SHRA BR BKN017 OVC030=



000
FTUS46 KPQR 270539
TAFSLE
TAF
KSLE 270539Z 2706/2806 14007KT P6SM BKN200
     FM270700 18012KT P6SM OVC120
     FM271100 18011KT P6SM -RA OVC050
     FM271400 19012G20KT 6SM -RA BR SCT015 OVC035
     FM271700 19010KT 5SM -SHRA BR BKN018 OVC025=



000
FTUS46 KPQR 270539
TAFPDX
TAF
KPDX 270539Z 2706/2806 09009KT P6SM SCT050 OVC150
     FM271000 14011KT P6SM -RA OVC060
     FM271300 15012KT P6SM -RA SCT020 OVC040
     FM271700 18012G20KT 6SM -SHRA BR BKN018 OVC025
     FM272100 19011KT P6SM -SHRA SCT012 BKN025 OVC040=



000
FTUS46 KPQR 270311 AAA
TAFPDX
TAF AMD
KPDX 270311Z 2703/2724 09009KT P6SM SCT050 OVC150
     FM271000 14011KT P6SM -RA OVC060
     FM271300 15012KT P6SM -RA SCT020 OVC040
     FM271700 18012G20KT 6SM -RA BR BKN012 OVC025
     FM272100 19011KT P6SM -SHRA SCT012 BKN025 OVC040=



000
FTUS46 KPQR 270311 AAA
TAFPDX
TAF AMD
KPDX 270311Z 2703/2724 09009KT P6SM SCT050 OVC150
     FM271000 14011KT P6SM -RA OVC060
     FM271300 15012KT P6SM -RA SCT020 OVC040
     FM271700 18012G20KT 6SM -RA BR BKN012 OVC025
     FM272100 19011KT P6SM -SHRA SCT012 BKN025 OVC040=



000
FTUS46 KPQR 262333
TAFAST
TAF
KAST 262333Z 2700/2724 18013G22KT P6SM SCT012 SCT045
     FM270500 19018G28KT 6SM -RA BR SCT012 BKN025 OVC040
     FM271200 21017G27KT 5SM RA BR BKN012 OVC025
     FM271800 20012G20KT 5SM -SHRA BR SCT008 OVC018=



000
FTUS46 KPQR 262333
TAFPDX
TAF
KPDX 262333Z 2700/2724 12007KT P6SM BKN120 OVC200
     FM271000 14011KT P6SM -RA OVC060
     FM271300 15012KT P6SM -RA SCT020 OVC040
     FM271700 18012G20KT 6SM -RA BR BKN012 OVC025
     FM272100 19011KT P6SM -SHRA SCT012 BKN025 OVC040=



000
FTUS46 KPQR 262333
TAFSLE
TAF
KSLE 262333Z 2700/2724 19007KT P6SM BKN200
     FM270500 18012KT P6SM OVC120
     FM271100 18011KT P6SM -RA OVC050
     FM271400 19012G20KT 6SM -RA BR SCT015 OVC035
     FM271700 19010KT 5SM -RA BR BKN015 OVC025=



000
FTUS46 KPQR 262333
TAFTTD
TAF
KTTD 262333Z 2700/2724 VRB04KT P6SM BKN120 OVC200
     FM270400 09008KT P6SM OVC120
     FM271100 10012KT P6SM -RA OVC050
     FM271400 VRB04KT P6SM -RA SCT020 OVC040
     FM271700 VRB04KT 5SM -RA BR BKN012 OVC030
     FM272100 19008KT P6SM -SHRA SCT012 BKN025 OVC040=



000
FTUS46 KPQR 262333
TAFHIO
TAF
KHIO 262333Z 2700/2724 17004KT P6SM SCT045 BKN130
     FM270900 17008KT 5SM -RA BR OVC045
     FM271200 18012KT 5SM -RA BR BKN022 OVC035
     FM271600 19011KT 4SM -RA BR SCT007 OVC018
     FM272100 19008KT P6SM -SHRA SCT007 BKN018 OVC030=



000
FTUS46 KPQR 262333
TAFEUG
TAF
KEUG 262333Z 2700/2724 21008KT P6SM BKN120 OVC200
     FM271200 19010KT 6SM -RA BR OVC050
     FM271600 19012KT 3SM -RA BR BKN012 OVC025
     FM272000 21009KT 6SM -RA BR BKN015 OVC030=



000
FTUS46 KPQR 262333
TAFONP
TAF
KONP 262333Z 2700/2724 18013G23KT P6SM SCT020 OVC200
     FM270300 19020G30KT 6SM HZ SCT020 OVC120
     FM270800 19025G35KT P6SM OVC060
     FM271400 19020G30KT 5SM -RA BR BKN022 OVC035
     FM271800 21015G25KT 4SM -RA BR BKN007 OVC015=



000
FTUS46 KPQR 262333
TAFSLE
TAF
KSLE 262333Z 2700/2724 19007KT P6SM BKN200
     FM270500 18012KT P6SM OVC120
     FM271100 18011KT P6SM -RA OVC050
     FM271400 19012G20KT 6SM -RA BR SCT015 OVC035
     FM271700 19010KT 5SM -RA BR BKN015 OVC025=



000
FTUS46 KPQR 262333
TAFTTD
TAF
KTTD 262333Z 2700/2724 VRB04KT P6SM BKN120 OVC200
     FM270400 09008KT P6SM OVC120
     FM271100 10012KT P6SM -RA OVC050
     FM271400 VRB04KT P6SM -RA SCT020 OVC040
     FM271700 VRB04KT 5SM -RA BR BKN012 OVC030
     FM272100 19008KT P6SM -SHRA SCT012 BKN025 OVC040=



000
FTUS46 KPQR 262333
TAFAST
TAF
KAST 262333Z 2700/2724 18013G22KT P6SM SCT012 SCT045
     FM270500 19018G28KT 6SM -RA BR SCT012 BKN025 OVC040
     FM271200 21017G27KT 5SM RA BR BKN012 OVC025
     FM271800 20012G20KT 5SM -SHRA BR SCT008 OVC018=



000
FTUS46 KPQR 262333
TAFPDX
TAF
KPDX 262333Z 2700/2724 12007KT P6SM BKN120 OVC200
     FM271000 14011KT P6SM -RA OVC060
     FM271300 15012KT P6SM -RA SCT020 OVC040
     FM271700 18012G20KT 6SM -RA BR BKN012 OVC025
     FM272100 19011KT P6SM -SHRA SCT012 BKN025 OVC040=



000
FTUS46 KPQR 262333
TAFONP
TAF
KONP 262333Z 2700/2724 18013G23KT P6SM SCT020 OVC200
     FM270300 19020G30KT 6SM HZ SCT020 OVC120
     FM270800 19025G35KT P6SM OVC060
     FM271400 19020G30KT 5SM -RA BR BKN022 OVC035
     FM271800 21015G25KT 4SM -RA BR BKN007 OVC015=



000
FTUS46 KPQR 262333
TAFHIO
TAF
KHIO 262333Z 2700/2724 17004KT P6SM SCT045 BKN130
     FM270900 17008KT 5SM -RA BR OVC045
     FM271200 18012KT 5SM -RA BR BKN022 OVC035
     FM271600 19011KT 4SM -RA BR SCT007 OVC018
     FM272100 19008KT P6SM -SHRA SCT007 BKN018 OVC030=



000
FTUS46 KPQR 262333
TAFEUG
TAF
KEUG 262333Z 2700/2724 21008KT P6SM BKN120 OVC200
     FM271200 19010KT 6SM -RA BR OVC050
     FM271600 19012KT 3SM -RA BR BKN012 OVC025
     FM272000 21009KT 6SM -RA BR BKN015 OVC030=



000
FTUS46 KPQR 262055 AAA
TAFPDX
TAF AMD
KPDX 262055Z 2621/2718 08005KT P6SM BKN140
     FM270000 12007KT P6SM OVC120
     FM271000 14011KT P6SM -RA OVC060
     FM271300 15012KT P6SM -RA SCT020 OVC040=



000
FTUS46 KPQR 262055 AAA
TAFPDX
TAF AMD
KPDX 262055Z 2621/2718 08005KT P6SM BKN140
     FM270000 12007KT P6SM OVC120
     FM271000 14011KT P6SM -RA OVC060
     FM271300 15012KT P6SM -RA SCT020 OVC040=



000
FTUS46 KPQR 261730
TAFONP
TAF
KONP 261730Z 2618/2718 12006KT P6SM OVC200
     FM262000 18013G23KT P6SM SCT020 OVC200
     FM270300 19020G30KT 6SM HZ SCT020 OVC120
     FM270800 19025G35KT P6SM OVC060
     FM271400 19020G30KT 5SM -RA BR BKN022 OVC035=



000
FTUS46 KPQR 261730
TAFTTD
TAF
KTTD 261730Z 2618/2718 10005KT P6SM OVC050
     FM262200 VRB04KT P6SM BKN050 OVC120
     FM270400 09008KT P6SM SCT050 OVC100
     FM271100 10012KT P6SM -RA OVC050
     FM271400 VRB04KT P6SM -RA SCT020 OVC040=



000
FTUS46 KPQR 261730
TAFEUG
TAF
KEUG 261730Z 2618/2718 18006KT P6SM OVC200
     FM270000 18008KT P6SM BKN120 OVC200
     FM271200 19010KT 6SM -RA BR OVC050
     FM271500 19010KT 3SM -RA BR BKN012 OVC035=



000
FTUS46 KPQR 261730
TAFPDX
TAF
KPDX 261730Z 2618/2718 11005KT P6SM OVC050
     FM262100 15007KT P6SM BKN050 OVC120
     FM271000 14011KT P6SM -RA OVC060
     FM271300 15012KT P6SM -RA SCT020 OVC040=



000
FTUS46 KPQR 261730
TAFPDX
TAF
KPDX 261730Z 2618/2718 11005KT P6SM OVC050
     FM262100 15007KT P6SM BKN050 OVC120
     FM271000 14011KT P6SM -RA OVC060
     FM271300 15012KT P6SM -RA SCT020 OVC040=



000
FTUS46 KPQR 261730
TAFONP
TAF
KONP 261730Z 2618/2718 12006KT P6SM OVC200
     FM262000 18013G23KT P6SM SCT020 OVC200
     FM270300 19020G30KT 6SM HZ SCT020 OVC120
     FM270800 19025G35KT P6SM OVC060
     FM271400 19020G30KT 5SM -RA BR BKN022 OVC035=



000
FTUS46 KPQR 261730
TAFHIO
TAF
KHIO 261730Z 2618/2718 VRB03KT P6SM OVC040
     FM262100 17004KT P6SM BKN045 OVC100
     FM270900 17008KT 5SM -RA BR OVC045
     FM271200 18012KT 5SM -RA BR BKN022 OVC035=



000
FTUS46 KPQR 261730
TAFSLE
TAF
KSLE 261730Z 2618/2718 14006KT P6SM SCT050 BKN150
     FM262100 19007KT P6SM SCT060 BKN150
     FM270500 18012KT P6SM OVC080
     FM271100 18011KT P6SM -RA OVC050=



000
FTUS46 KPQR 261730
TAFHIO
TAF
KHIO 261730Z 2618/2718 VRB03KT P6SM OVC040
     FM262100 17004KT P6SM BKN045 OVC100
     FM270900 17008KT 5SM -RA BR OVC045
     FM271200 18012KT 5SM -RA BR BKN022 OVC035=



000
FTUS46 KPQR 261730
TAFEUG
TAF
KEUG 261730Z 2618/2718 18006KT P6SM OVC200
     FM270000 18008KT P6SM BKN120 OVC200
     FM271200 19010KT 6SM -RA BR OVC050
     FM271500 19010KT 3SM -RA BR BKN012 OVC035=



000
FTUS46 KPQR 261730
TAFTTD
TAF
KTTD 261730Z 2618/2718 10005KT P6SM OVC050
     FM262200 VRB04KT P6SM BKN050 OVC120
     FM270400 09008KT P6SM SCT050 OVC100
     FM271100 10012KT P6SM -RA OVC050
     FM271400 VRB04KT P6SM -RA SCT020 OVC040=



000
FTUS46 KPQR 261730
TAFAST
TAF
KAST 261730Z 2618/2718 18007KT P6SM OVC006
     FM261900 18012KT P6SM BKN008 OVC020
     FM262200 18013G22KT P6SM BKN012 OVC030
     FM270500 19018G28KT 6SM -RA BR SCT012 BKN025 OVC040
     FM271200 21017G27KT 5SM RA BR BKN012 OVC025=



000
FTUS46 KPQR 261730
TAFSLE
TAF
KSLE 261730Z 2618/2718 14006KT P6SM SCT050 BKN150
     FM262100 19007KT P6SM SCT060 BKN150
     FM270500 18012KT P6SM OVC080
     FM271100 18011KT P6SM -RA OVC050=



000
FTUS46 KPQR 261730
TAFAST
TAF
KAST 261730Z 2618/2718 18007KT P6SM OVC006
     FM261900 18012KT P6SM BKN008 OVC020
     FM262200 18013G22KT P6SM BKN012 OVC030
     FM270500 19018G28KT 6SM -RA BR SCT012 BKN025 OVC040
     FM271200 21017G27KT 5SM RA BR BKN012 OVC025=



000
FTUS46 KPQR 261605 AAB
TAFEUG
TAF AMD
KEUG 261605Z 2616/2712 19008KT P6SM SCT150 OVC250
     FM261800 17006KT P6SM SCT040 BKN150
     FM271100 16011KT P6SM -RA BKN040 OVC080=



000
FTUS46 KPQR 261604 AAB
TAFSLE
TAF AMD
KSLE 261604Z 2616/2712 16006KT P6SM BKN050
     FM261800 18006KT P6SM SCT050 BKN150
     FM262000 19007KT P6SM SCT080 BKN150
     FM271100 16011KT P6SM -RA BKN040 OVC080=



000
FTUS46 KPQR 261604 AAB
TAFSLE
TAF AMD
KSLE 261604Z 2616/2712 16006KT P6SM BKN050
     FM261800 18006KT P6SM SCT050 BKN150
     FM262000 19007KT P6SM SCT080 BKN150
     FM271100 16011KT P6SM -RA BKN040 OVC080=



000
FTUS46 KPQR 261603 AAA
TAFONP
TAF AMD
KONP 261603Z 2616/2712 10005KT P6SM OVC200
     FM261800 18012G20KT P6SM SCT020 OVC200
     FM262100 18013G22KT 5SM BR FEW012 SCT025 BKN100
     FM270700 19020G27KT P6SM SCT009 BKN025 OVC040=



000
FTUS46 KPQR 261451 AAB
TAFTTD
TAF AMD
KTTD 261451Z 2615/2712 19003KT 6SM BR FEW008 SCT012 OVC050
     FM261800 19005KT P6SM FEW010 SCT050
     FM262000 17007KT P6SM SCT080 BKN150
     FM271000 10012KT P6SM -RA BKN040 OVC080=



000
FTUS46 KPQR 261451 AAB
TAFTTD
TAF AMD
KTTD 261451Z 2615/2712 19003KT 6SM BR FEW008 SCT012 OVC050
     FM261800 19005KT P6SM FEW010 SCT050
     FM262000 17007KT P6SM SCT080 BKN150
     FM271000 10012KT P6SM -RA BKN040 OVC080=



000
FTUS46 KPQR 261451 AAB
TAFPDX
TAF AMD
KPDX 261451Z 2615/2712 19003KT 6SM BR FEW008 SCT012 OVC050
     FM262000 15007KT P6SM SCT080 BKN150
     FM271000 16011KT P6SM -RA BKN040 OVC080=



000
FTUS46 KPQR 261451 AAB
TAFPDX
TAF AMD
KPDX 261451Z 2615/2712 19003KT 6SM BR FEW008 SCT012 OVC050
     FM262000 15007KT P6SM SCT080 BKN150
     FM271000 16011KT P6SM -RA BKN040 OVC080=



000
FTUS46 KPQR 261451 AAB
TAFHIO
TAF AMD
KHIO 261451Z 2615/2712 18003KT 6SM BR FEW008 SCT012 OVC050
     FM261800 15007KT P6SM FEW008 SCT080 BKN150
     FM270900 16011KT P6SM -RA BKN040 OVC080=



000
FTUS46 KPQR 261451 AAB
TAFHIO
TAF AMD
KHIO 261451Z 2615/2712 18003KT 6SM BR FEW008 SCT012 OVC050
     FM261800 15007KT P6SM FEW008 SCT080 BKN150
     FM270900 16011KT P6SM -RA BKN040 OVC080=



000
FTUS46 KPQR 261351 AAA
TAFTTD
TAF AMD
KTTD 261351Z 2614/2712 20004KT P6SM OVC050
     FM261400 19003KT 6SM BR FEW008 SCT012 OVC050
      TEMPO 2616/2618 3SM BR SCT008 BKN012 BKN050
     FM261800 19005KT P6SM FEW010 SCT050
     FM262000 17007KT P6SM SCT080 BKN150
     FM271000 10012KT P6SM -RA BKN040 OVC080=



000
FTUS46 KPQR 261351 AAA
TAFTTD
TAF AMD
KTTD 261351Z 2614/2712 20004KT P6SM OVC050
     FM261400 19003KT 6SM BR FEW008 SCT012 OVC050
      TEMPO 2616/2618 3SM BR SCT008 BKN012 BKN050
     FM261800 19005KT P6SM FEW010 SCT050
     FM262000 17007KT P6SM SCT080 BKN150
     FM271000 10012KT P6SM -RA BKN040 OVC080=



000
FTUS46 KPQR 261351 AAA
TAFHIO
TAF AMD
KHIO 261351Z 2614/2712 18003KT 6SM BR FEW008 SCT012 OVC050
      TEMPO 2615/2617 2SM BR SCT003 BKN008 OVC050
     FM261800 15007KT P6SM FEW008 SCT080 BKN150
     FM270900 16011KT P6SM -RA BKN040 OVC080=



000
FTUS46 KPQR 261351 AAA
TAFHIO
TAF AMD
KHIO 261351Z 2614/2712 18003KT 6SM BR FEW008 SCT012 OVC050
      TEMPO 2615/2617 2SM BR SCT003 BKN008 OVC050
     FM261800 15007KT P6SM FEW008 SCT080 BKN150
     FM270900 16011KT P6SM -RA BKN040 OVC080=



000
FTUS46 KPQR 261350 AAA
TAFPDX
TAF AMD
KPDX 261350Z 2614/2712 20004KT P6SM OVC050
     FM261400 19003KT 6SM BR FEW008 SCT012 OVC050
      TEMPO 2616/2618 3SM BR SCT008 BKN012 OVC050
     FM262000 15007KT P6SM SCT080 BKN150
     FM271000 16011KT P6SM -RA BKN040 OVC080=



000
FTUS46 KPQR 261350 AAA
TAFPDX
TAF AMD
KPDX 261350Z 2614/2712 20004KT P6SM OVC050
     FM261400 19003KT 6SM BR FEW008 SCT012 OVC050
      TEMPO 2616/2618 3SM BR SCT008 BKN012 OVC050
     FM262000 15007KT P6SM SCT080 BKN150
     FM271000 16011KT P6SM -RA BKN040 OVC080=



000
FTUS46 KPQR 261343 AAA
TAFSLE
TAF AMD
KSLE 261343Z 2614/2712 18006KT 6SM BR FEW002 SCT006 BKN050
      TEMPO 2615/2617 2SM BR SCT002 BKN006
     FM261700 17005KT 6SM BR SCT004 BKN008 BKN150
     FM261800 18006KT P6SM BKN012 BKN150
     FM262000 15007KT P6SM SCT080 BKN150
     FM271100 16011KT P6SM -RA BKN040 OVC080=



000
FTUS46 KPQR 261342 AAA
TAFEUG
TAF AMD
KEUG 261342Z 2614/2712 19009KT 6SM BR FEW002 SCT004
      TEMPO 2614/2617 00000KT 1SM BR BKN040
     FM261700 17005KT 6SM BR SCT004 BKN008 BKN150
     FM261800 17006KT P6SM BKN012 BKN150
     FM262000 17007KT P6SM SCT080 BKN150
     FM271100 16011KT P6SM -RA BKN040 OVC080=



000
FTUS46 KPQR 261342 AAA
TAFEUG
TAF AMD
KEUG 261342Z 2614/2712 19009KT 6SM BR FEW002 SCT004
      TEMPO 2614/2617 00000KT 1SM BR BKN040
     FM261700 17005KT 6SM BR SCT004 BKN008 BKN150
     FM261800 17006KT P6SM BKN012 BKN150
     FM262000 17007KT P6SM SCT080 BKN150
     FM271100 16011KT P6SM -RA BKN040 OVC080=



000
FTUS46 KPQR 261123 CCA
TAFAST
TAF COR
KAST 261123Z 2612/2712 19012KT 3SM BR BKN004 OVC008
     FM261800 18012G20KT P6SM BKN008 OVC012
     FM262100 18013G22KT P6SM FEW012 SCT025 BKN100
     FM270500 19020G27KT 6SM -RA BR SCT009 BKN025 OVC040=



000
FTUS46 KPQR 261123 CCA
TAFAST
TAF COR
KAST 261123Z 2612/2712 19012KT 3SM BR BKN004 OVC008
     FM261800 18012G20KT P6SM BKN008 OVC012
     FM262100 18013G22KT P6SM FEW012 SCT025 BKN100
     FM270500 19020G27KT 6SM -RA BR SCT009 BKN025 OVC040=



000
FTUS46 KPQR 261122 CCA
TAFEUG
TAF COR
KEUG 261122Z 2612/2712 VRB03KT 1/2SM FG BKN002 OVC004
      TEMPO 2613/2617 3SM BR FEW002 SCT004 BKN040
     FM261700 17005KT 6SM BR SCT004 BKN008 BKN150
     FM261800 17006KT P6SM BKN012 BKN150
     FM262000 17007KT P6SM SCT080 BKN150
     FM271100 16011KT P6SM -RA BKN040 OVC080=



000
FTUS46 KPQR 261122 CCA
TAFEUG
TAF COR
KEUG 261122Z 2612/2712 VRB03KT 1/2SM FG BKN002 OVC004
      TEMPO 2613/2617 3SM BR FEW002 SCT004 BKN040
     FM261700 17005KT 6SM BR SCT004 BKN008 BKN150
     FM261800 17006KT P6SM BKN012 BKN150
     FM262000 17007KT P6SM SCT080 BKN150
     FM271100 16011KT P6SM -RA BKN040 OVC080=



000
FTUS46 KPQR 261120
TAFONP
TAF
KONP 261120Z 2612/2712 20008KT 2SM BR OVC003
      TEMPO 2612/2616 1/2SM FG VV002
     FM261800 18012G20KT 3SM BR BKN006 OVC012
     FM262100 18013G22KT 5SM BR FEW012 SCT025 BKN100
     FM270700 19020G27KT P6SM SCT009 BKN025 OVC040=



000
FTUS46 KPQR 261120
TAFONP
TAF
KONP 261120Z 2612/2712 20008KT 2SM BR OVC003
      TEMPO 2612/2616 1/2SM FG VV002
     FM261800 18012G20KT 3SM BR BKN006 OVC012
     FM262100 18013G22KT 5SM BR FEW012 SCT025 BKN100
     FM270700 19020G27KT P6SM SCT009 BKN025 OVC040=



000
FTUS46 KPQR 261120
TAFEUG
TAF
KEUG 261120Z 2612/2712 VRB03KT P6SM OVC040
     FM261300 VRB03KT 5SM BR FEW002 SCT004 OVC040
      TEMPO 2613/2617 1SM BR SCT002 BKN004 BKN040
     FM261700 17005KT 6SM BR SCT004 BKN008 BKN150
     FM261800 17006KT P6SM BKN012 BKN150
     FM262000 17007KT P6SM SCT080 BKN150
     FM271100 16011KT P6SM -RA BKN040 OVC080=



000
FTUS46 KPQR 261120
TAFTTD
TAF
KTTD 261120Z 2612/2712 20004KT P6SM OVC050
     FM261400 19003KT 6SM BR FEW008 SCT012 OVC050
      TEMPO 2614/2618 3SM BR SCT008 BKN012 BKN050
     FM261800 19005KT P6SM FEW010 SCT050
     FM262000 17007KT P6SM SCT080 BKN150
     FM271000 10012KT P6SM -RA BKN040 OVC080=



000
FTUS46 KPQR 261120
TAFHIO
TAF
KHIO 261120Z 2612/2712 19003KT P6SM OVC050
     FM261400 19003KT 6SM BR FEW008 SCT012 OVC050
      TEMPO 2614/2617 2SM BR SCT003 BKN008 OVC050
     FM261800 15007KT P6SM FEW008 SCT080 BKN150
     FM270900 16011KT P6SM -RA BKN040 OVC080=



000
FTUS46 KPQR 261120
TAFPDX
TAF
KPDX 261120Z 2612/2712 20004KT P6SM OVC050
     FM261400 19003KT 6SM BR FEW008 SCT012 OVC050
      TEMPO 2614/2618 3SM BR SCT008 BKN012 OVC050
     FM262000 15007KT P6SM SCT080 BKN150
     FM271000 16011KT P6SM -RA BKN040 OVC080=



000
FTUS46 KPQR 261120
TAFSLE
TAF
KSLE 261120Z 2612/2712 19006KT P6SM OVC050
     FM261300 VRB03KT 6SM BR FEW002 SCT004 BKN050
      TEMPO 2614/2617 2SM BR SCT002 BKN004
     FM261700 17005KT 6SM BR SCT004 BKN008 BKN150
     FM261800 18006KT P6SM BKN012 BKN150
     FM262000 15007KT P6SM SCT080 BKN150
     FM271100 16011KT P6SM -RA BKN040 OVC080=



000
FTUS46 KPQR 261120
TAFAST
TAF
KAST 261120Z 2612/2712 19008KT 3SM BR BKN004 OVC008
     FM261800 18012G20KT 4SM BR BKN008 OVC012
     FM262100 18013G22KT P6SM FEW012 SCT025 BKN100
     FM270500 19020G27KT 6SM -RA BR SCT009 BKN025 OVC040=



000
FTUS46 KPQR 261120
TAFTTD
TAF
KTTD 261120Z 2612/2712 20004KT P6SM OVC050
     FM261400 19003KT 6SM BR FEW008 SCT012 OVC050
      TEMPO 2614/2618 3SM BR SCT008 BKN012 BKN050
     FM261800 19005KT P6SM FEW010 SCT050
     FM262000 17007KT P6SM SCT080 BKN150
     FM271000 10012KT P6SM -RA BKN040 OVC080=



000
FTUS46 KPQR 261120
TAFAST
TAF
KAST 261120Z 2612/2712 19008KT 3SM BR BKN004 OVC008
     FM261800 18012G20KT 4SM BR BKN008 OVC012
     FM262100 18013G22KT P6SM FEW012 SCT025 BKN100
     FM270500 19020G27KT 6SM -RA BR SCT009 BKN025 OVC040=



000
FTUS46 KPQR 261120
TAFHIO
TAF
KHIO 261120Z 2612/2712 19003KT P6SM OVC050
     FM261400 19003KT 6SM BR FEW008 SCT012 OVC050
      TEMPO 2614/2617 2SM BR SCT003 BKN008 OVC050
     FM261800 15007KT P6SM FEW008 SCT080 BKN150
     FM270900 16011KT P6SM -RA BKN040 OVC080=



000
FTUS46 KPQR 261120
TAFSLE
TAF
KSLE 261120Z 2612/2712 19006KT P6SM OVC050
     FM261300 VRB03KT 6SM BR FEW002 SCT004 BKN050
      TEMPO 2614/2617 2SM BR SCT002 BKN004
     FM261700 17005KT 6SM BR SCT004 BKN008 BKN150
     FM261800 18006KT P6SM BKN012 BKN150
     FM262000 15007KT P6SM SCT080 BKN150
     FM271100 16011KT P6SM -RA BKN040 OVC080=



000
FTUS46 KPQR 261120
TAFPDX
TAF
KPDX 261120Z 2612/2712 20004KT P6SM OVC050
     FM261400 19003KT 6SM BR FEW008 SCT012 OVC050
      TEMPO 2614/2618 3SM BR SCT008 BKN012 OVC050
     FM262000 15007KT P6SM SCT080 BKN150
     FM271000 16011KT P6SM -RA BKN040 OVC080=



000
FTUS46 KPQR 261120
TAFEUG
TAF
KEUG 261120Z 2612/2712 VRB03KT P6SM OVC040
     FM261300 VRB03KT 5SM BR FEW002 SCT004 OVC040
      TEMPO 2613/2617 1SM BR SCT002 BKN004 BKN040
     FM261700 17005KT 6SM BR SCT004 BKN008 BKN150
     FM261800 17006KT P6SM BKN012 BKN150
     FM262000 17007KT P6SM SCT080 BKN150
     FM271100 16011KT P6SM -RA BKN040 OVC080=



000
FTUS46 KPQR 261048 AAB
TAFAST
TAF AMD
KAST 261048Z 2611/2706 19008KT 3SM BR BKN004 OVC008
     FM261800 18012G20KT 4SM BR BKN008 OVC012
     FM262100 18013G22KT P6SM FEW012 SCT025 BKN100
     FM270530 19020G27KT 6SM -RA BR SCT009 BKN025 OVC040=



000
FTUS46 KPQR 261048 AAB
TAFAST
TAF AMD
KAST 261048Z 2611/2706 19008KT 3SM BR BKN004 OVC008
     FM261800 18012G20KT 4SM BR BKN008 OVC012
     FM262100 18013G22KT P6SM FEW012 SCT025 BKN100
     FM270530 19020G27KT 6SM -RA BR SCT009 BKN025 OVC040=



000
FTUS46 KPQR 261045 AAB
TAFONP
TAF AMD
KONP 261045Z 2611/2706 20008KT 2SM BR OVC003
      TEMPO 2611/2615 1/2SM FG VV002
     FM261800 18012G20KT 3SM BR BKN006 OVC012
     FM262100 18013G22KT 5SM BR FEW012 SCT025 BKN100
     FM270530 19020G27KT P6SM SCT009 BKN025 OVC040=



000
FTUS46 KPQR 261045 AAB
TAFONP
TAF AMD
KONP 261045Z 2611/2706 20008KT 2SM BR OVC003
      TEMPO 2611/2615 1/2SM FG VV002
     FM261800 18012G20KT 3SM BR BKN006 OVC012
     FM262100 18013G22KT 5SM BR FEW012 SCT025 BKN100
     FM270530 19020G27KT P6SM SCT009 BKN025 OVC040=



000
FTUS46 KPQR 261042 AAA
TAFEUG
TAF AMD
KEUG 261042Z 2611/2706 VRB03KT P6SM OVC040
     FM261300 VRB03KT 5SM BR FEW002 SCT004 OVC040
      TEMPO 2613/2617 1SM BR SCT002 BKN004 BKN040
     FM261700 17005KT 6SM BR SCT004 BKN008 BKN150
     FM261800 17006KT P6SM BKN012 BKN150
     FM262000 17007KT P6SM SCT080 BKN150
     FM270530 16011KT P6SM -RA BKN040 OVC080=



000
FTUS46 KPQR 261040 AAA
TAFSLE
TAF AMD
KSLE 261040Z 2611/2706 19006KT P6SM OVC050
     FM261300 VRB03KT 6SM BR FEW002 SCT004 BKN050
      TEMPO 2614/2617 2SM BR SCT002 BKN004
     FM261700 17005KT 6SM BR SCT004 BKN008 BKN150
     FM261800 18006KT P6SM BKN012 BKN150
     FM262000 15007KT P6SM SCT080 BKN150
     FM270530 16011KT P6SM -RA BKN040 OVC080=



000
FTUS46 KPQR 261040 AAA
TAFSLE
TAF AMD
KSLE 261040Z 2611/2706 19006KT P6SM OVC050
     FM261300 VRB03KT 6SM BR FEW002 SCT004 BKN050
      TEMPO 2614/2617 2SM BR SCT002 BKN004
     FM261700 17005KT 6SM BR SCT004 BKN008 BKN150
     FM261800 18006KT P6SM BKN012 BKN150
     FM262000 15007KT P6SM SCT080 BKN150
     FM270530 16011KT P6SM -RA BKN040 OVC080=



000
FTUS46 KPQR 261032 AAA
TAFTTD
TAF AMD
KTTD 261032Z 2611/2706 20004KT P6SM OVC050
     FM261400 19003KT 6SM BR FEW008 SCT012 OVC050
      TEMPO 2614/2618 3SM BR SCT008 BKN012 BKN050
     FM261800 19005KT P6SM FEW010 SCT050
     FM262000 17007KT P6SM SCT080 BKN150
     FM270530 10012KT P6SM -RA BKN040 OVC080=



000
FTUS46 KPQR 261032 AAA
TAFTTD
TAF AMD
KTTD 261032Z 2611/2706 20004KT P6SM OVC050
     FM261400 19003KT 6SM BR FEW008 SCT012 OVC050
      TEMPO 2614/2618 3SM BR SCT008 BKN012 BKN050
     FM261800 19005KT P6SM FEW010 SCT050
     FM262000 17007KT P6SM SCT080 BKN150
     FM270530 10012KT P6SM -RA BKN040 OVC080=



000
FTUS46 KPQR 261029 AAA
TAFHIO
TAF AMD
KHIO 261029Z 2610/2706 19003KT P6SM OVC050
     FM261400 19003KT 6SM BR FEW008 SCT012 OVC050
      TEMPO 2614/2617 2SM BR SCT003 BKN008 OVC050
     FM261800 15007KT P6SM FEW008 SCT080 BKN150
     FM270530 16011KT P6SM -RA BKN040 OVC080=



000
FTUS46 KPQR 261029 AAA
TAFHIO
TAF AMD
KHIO 261029Z 2610/2706 19003KT P6SM OVC050
     FM261400 19003KT 6SM BR FEW008 SCT012 OVC050
      TEMPO 2614/2617 2SM BR SCT003 BKN008 OVC050
     FM261800 15007KT P6SM FEW008 SCT080 BKN150
     FM270530 16011KT P6SM -RA BKN040 OVC080=



000
FTUS46 KPQR 261025 AAB
TAFPDX
TAF AMD
KPDX 261025Z 2610/2706 20004KT P6SM OVC050
     FM261400 19003KT 6SM BR FEW008 SCT012 OVC050
      TEMPO 2614/2618 3SM BR SCT008 BKN012 OVC050
     FM262000 15007KT P6SM SCT080 BKN150
     FM270530 16011KT P6SM -RA BKN040 OVC080=



000
FTUS46 KPQR 261025 AAB
TAFPDX
TAF AMD
KPDX 261025Z 2610/2706 20004KT P6SM OVC050
     FM261400 19003KT 6SM BR FEW008 SCT012 OVC050
      TEMPO 2614/2618 3SM BR SCT008 BKN012 OVC050
     FM262000 15007KT P6SM SCT080 BKN150
     FM270530 16011KT P6SM -RA BKN040 OVC080=



000
FTUS46 KPQR 260857 AAA
TAFONP
TAF AMD
KONP 260857Z 2609/2706 20008KT 1/2SM FG OVC002
     FM261800 18012G21KT 3SM BR BKN006 OVC012
     FM270200 19020G27KT P6SM SCT009 BKN015 OVC030=



000
FTUS46 KPQR 260857 AAA
TAFONP
TAF AMD
KONP 260857Z 2609/2706 20008KT 1/2SM FG OVC002
     FM261800 18012G21KT 3SM BR BKN006 OVC012
     FM270200 19020G27KT P6SM SCT009 BKN015 OVC030=



000
FTUS46 KPQR 260854 AAA
TAFAST
TAF AMD
KAST 260854Z 2609/2706 21010G18KT 6SM BR VCSH SCT005 OVC010
     FM261200 18010KT 5SM BR BKN007 OVC012
     FM261900 19015G25KT P6SM SCT007 BKN100=



000
FTUS46 KPQR 260854 AAA
TAFAST
TAF AMD
KAST 260854Z 2609/2706 21010G18KT 6SM BR VCSH SCT005 OVC010
     FM261200 18010KT 5SM BR BKN007 OVC012
     FM261900 19015G25KT P6SM SCT007 BKN100=



000
FTUS46 KPQR 260852 AAA
TAFPDX
TAF AMD
KPDX 260852Z 2609/2706 20004KT P6SM OVC050
     FM261300 19008KT 6SM BR BKN030 OVC050
     FM261800 14007KT P6SM OVC150=



000
FTUS46 KPQR 260852 AAA
TAFPDX
TAF AMD
KPDX 260852Z 2609/2706 20004KT P6SM OVC050
     FM261300 19008KT 6SM BR BKN030 OVC050
     FM261800 14007KT P6SM OVC150=



    US Dept of Commerce
    National Oceanic and Atmospheric Administration
    National Weather Service
    1325 East West Highway
    Silver Spring, MD 20910
    Page Author: NWS Internet Services Team
Disclaimer
Information Quality
Credits
Glossary
Privacy Policy
Freedom of Information Act (FOIA)
About Us
Career Opportunities